<?xml version="1.0" encoding="UTF-8" standalone="no" ?>
<gpx xmlns="http://www.topografix.com/GPX/1/1" xmlns:xsi="http://www.w3.org/2001/XMLSchema-instance" xsi:schemaLocation="http://www.topografix.com/GPX/1/1 http://www.topografix.com/GPX/1/1/gpx.xsd" version="1.1" creator="VisuGPX - https://www.visugpx.com">
  <metadata>
    <name>Tracé de la rando du 6012017</name>
    <desc><![CDATA[Tracé de la rando du 6012017 depuis La Chapelle en Vexin]]></desc>
  </metadata>
  <trk>
    <name><![CDATA[6 janv. 2017]]></name>
    <cmt><![CDATA[09:53:53]]></cmt>
    <desc><![CDATA[comment ...]]></desc>
    <trkseg>
      <trkpt lat="49.18147" lon="1.73083">
        <ele>148</ele>
        <time>2017-01-06T08:53:52Z</time>
      </trkpt>
      <trkpt lat="49.18148" lon="1.73084">
        <ele>148</ele>
        <time>2017-01-06T08:53:53Z</time>
      </trkpt>
      <trkpt lat="49.18143" lon="1.73077">
        <ele>149</ele>
        <time>2017-01-06T08:53:58Z</time>
      </trkpt>
      <trkpt lat="49.18137" lon="1.73074">
        <ele>149</ele>
        <time>2017-01-06T08:54:03Z</time>
      </trkpt>
      <trkpt lat="49.18123" lon="1.73063">
        <ele>147</ele>
        <time>2017-01-06T08:54:16Z</time>
      </trkpt>
      <trkpt lat="49.18121" lon="1.73066">
        <ele>146</ele>
        <time>2017-01-06T08:54:18Z</time>
      </trkpt>
      <trkpt lat="49.18119" lon="1.73062">
        <ele>146</ele>
        <time>2017-01-06T08:54:20Z</time>
      </trkpt>
      <trkpt lat="49.18094" lon="1.7304">
        <ele>143</ele>
        <time>2017-01-06T08:54:44Z</time>
      </trkpt>
      <trkpt lat="49.18089" lon="1.73041">
        <ele>143</ele>
        <time>2017-01-06T08:54:54Z</time>
      </trkpt>
      <trkpt lat="49.18081" lon="1.73029">
        <ele>142</ele>
        <time>2017-01-06T08:54:59Z</time>
      </trkpt>
      <trkpt lat="49.18076" lon="1.73025">
        <ele>144</ele>
        <time>2017-01-06T08:55:05Z</time>
      </trkpt>
      <trkpt lat="49.18074" lon="1.73016">
        <ele>146</ele>
        <time>2017-01-06T08:55:10Z</time>
      </trkpt>
      <trkpt lat="49.18072" lon="1.73007">
        <ele>150</ele>
        <time>2017-01-06T08:55:14Z</time>
      </trkpt>
      <trkpt lat="49.1806" lon="1.72994">
        <ele>154</ele>
        <time>2017-01-06T08:55:23Z</time>
      </trkpt>
      <trkpt lat="49.18051" lon="1.7298">
        <ele>156</ele>
        <time>2017-01-06T08:55:32Z</time>
      </trkpt>
      <trkpt lat="49.18048" lon="1.72972">
        <ele>157</ele>
        <time>2017-01-06T08:55:36Z</time>
      </trkpt>
      <trkpt lat="49.18041" lon="1.72969">
        <ele>156</ele>
        <time>2017-01-06T08:55:40Z</time>
      </trkpt>
      <trkpt lat="49.18039" lon="1.72961">
        <ele>156</ele>
        <time>2017-01-06T08:55:44Z</time>
      </trkpt>
      <trkpt lat="49.18035" lon="1.72956">
        <ele>156</ele>
        <time>2017-01-06T08:55:47Z</time>
      </trkpt>
      <trkpt lat="49.1803" lon="1.72956">
        <ele>156</ele>
        <time>2017-01-06T08:55:49Z</time>
      </trkpt>
      <trkpt lat="49.18011" lon="1.72936">
        <ele>148</ele>
        <time>2017-01-06T08:56:03Z</time>
      </trkpt>
      <trkpt lat="49.1801" lon="1.72929">
        <ele>149</ele>
        <time>2017-01-06T08:56:05Z</time>
      </trkpt>
      <trkpt lat="49.18006" lon="1.72929">
        <ele>149</ele>
        <time>2017-01-06T08:56:06Z</time>
      </trkpt>
      <trkpt lat="49.18003" lon="1.72926">
        <ele>149</ele>
        <time>2017-01-06T08:56:09Z</time>
      </trkpt>
      <trkpt lat="49.18002" lon="1.7292">
        <ele>149</ele>
        <time>2017-01-06T08:56:11Z</time>
      </trkpt>
      <trkpt lat="49.17995" lon="1.72914">
        <ele>145</ele>
        <time>2017-01-06T08:56:20Z</time>
      </trkpt>
      <trkpt lat="49.17993" lon="1.72908">
        <ele>149</ele>
        <time>2017-01-06T08:56:24Z</time>
      </trkpt>
      <trkpt lat="49.17977" lon="1.72881">
        <ele>155</ele>
        <time>2017-01-06T08:56:46Z</time>
      </trkpt>
      <trkpt lat="49.17974" lon="1.72877">
        <ele>154</ele>
        <time>2017-01-06T08:56:48Z</time>
      </trkpt>
      <trkpt lat="49.17961" lon="1.72846">
        <ele>157</ele>
        <time>2017-01-06T08:57:07Z</time>
      </trkpt>
      <trkpt lat="49.17958" lon="1.72845">
        <ele>156</ele>
        <time>2017-01-06T08:57:09Z</time>
      </trkpt>
      <trkpt lat="49.17947" lon="1.72831">
        <ele>151</ele>
        <time>2017-01-06T08:57:19Z</time>
      </trkpt>
      <trkpt lat="49.17944" lon="1.72823">
        <ele>151</ele>
        <time>2017-01-06T08:57:24Z</time>
      </trkpt>
      <trkpt lat="49.17941" lon="1.72821">
        <ele>150</ele>
        <time>2017-01-06T08:57:26Z</time>
      </trkpt>
      <trkpt lat="49.17936" lon="1.72814">
        <ele>148</ele>
        <time>2017-01-06T08:57:31Z</time>
      </trkpt>
      <trkpt lat="49.17929" lon="1.7279">
        <ele>149</ele>
        <time>2017-01-06T08:57:48Z</time>
      </trkpt>
      <trkpt lat="49.1793" lon="1.72779">
        <ele>151</ele>
        <time>2017-01-06T08:57:54Z</time>
      </trkpt>
      <trkpt lat="49.17925" lon="1.72765">
        <ele>156</ele>
        <time>2017-01-06T08:57:59Z</time>
      </trkpt>
      <trkpt lat="49.17922" lon="1.72762">
        <ele>156</ele>
        <time>2017-01-06T08:58:00Z</time>
      </trkpt>
      <trkpt lat="49.17918" lon="1.7276">
        <ele>154</ele>
        <time>2017-01-06T08:58:01Z</time>
      </trkpt>
      <trkpt lat="49.17917" lon="1.72754">
        <ele>154</ele>
        <time>2017-01-06T08:58:05Z</time>
      </trkpt>
      <trkpt lat="49.17913" lon="1.72751">
        <ele>154</ele>
        <time>2017-01-06T08:58:06Z</time>
      </trkpt>
      <trkpt lat="49.17912" lon="1.72744">
        <ele>152</ele>
        <time>2017-01-06T08:58:09Z</time>
      </trkpt>
      <trkpt lat="49.17912" lon="1.72736">
        <ele>150</ele>
        <time>2017-01-06T08:58:12Z</time>
      </trkpt>
      <trkpt lat="49.1791" lon="1.72729">
        <ele>150</ele>
        <time>2017-01-06T08:58:18Z</time>
      </trkpt>
      <trkpt lat="49.17906" lon="1.72728">
        <ele>149</ele>
        <time>2017-01-06T08:58:20Z</time>
      </trkpt>
      <trkpt lat="49.17904" lon="1.72723">
        <ele>149</ele>
        <time>2017-01-06T08:58:23Z</time>
      </trkpt>
      <trkpt lat="49.17901" lon="1.727">
        <ele>150</ele>
        <time>2017-01-06T08:58:39Z</time>
      </trkpt>
      <trkpt lat="49.17891" lon="1.72688">
        <ele>145</ele>
        <time>2017-01-06T08:58:46Z</time>
      </trkpt>
      <trkpt lat="49.17893" lon="1.72675">
        <ele>145</ele>
        <time>2017-01-06T08:58:50Z</time>
      </trkpt>
      <trkpt lat="49.17893" lon="1.7266">
        <ele>147</ele>
        <time>2017-01-06T08:58:52Z</time>
      </trkpt>
      <trkpt lat="49.17887" lon="1.72659">
        <ele>146</ele>
        <time>2017-01-06T08:58:57Z</time>
      </trkpt>
      <trkpt lat="49.17883" lon="1.72644">
        <ele>147</ele>
        <time>2017-01-06T08:59:07Z</time>
      </trkpt>
      <trkpt lat="49.17874" lon="1.72625">
        <ele>149</ele>
        <time>2017-01-06T08:59:20Z</time>
      </trkpt>
      <trkpt lat="49.17863" lon="1.7262">
        <ele>149</ele>
        <time>2017-01-06T08:59:25Z</time>
      </trkpt>
      <trkpt lat="49.17867" lon="1.72602">
        <ele>148</ele>
        <time>2017-01-06T08:59:35Z</time>
      </trkpt>
      <trkpt lat="49.17863" lon="1.72591">
        <ele>149</ele>
        <time>2017-01-06T08:59:39Z</time>
      </trkpt>
      <trkpt lat="49.17852" lon="1.726">
        <ele>151</ele>
        <time>2017-01-06T08:59:49Z</time>
      </trkpt>
      <trkpt lat="49.17855" lon="1.72582">
        <ele>151</ele>
        <time>2017-01-06T08:59:54Z</time>
      </trkpt>
      <trkpt lat="49.17849" lon="1.72567">
        <ele>149</ele>
        <time>2017-01-06T08:59:57Z</time>
      </trkpt>
      <trkpt lat="49.17837" lon="1.72565">
        <ele>149</ele>
        <time>2017-01-06T09:00:05Z</time>
      </trkpt>
      <trkpt lat="49.17835" lon="1.72557">
        <ele>150</ele>
        <time>2017-01-06T09:00:11Z</time>
      </trkpt>
      <trkpt lat="49.17825" lon="1.72544">
        <ele>149</ele>
        <time>2017-01-06T09:00:21Z</time>
      </trkpt>
      <trkpt lat="49.17823" lon="1.72536">
        <ele>150</ele>
        <time>2017-01-06T09:00:25Z</time>
      </trkpt>
      <trkpt lat="49.17818" lon="1.72533">
        <ele>149</ele>
        <time>2017-01-06T09:00:28Z</time>
      </trkpt>
      <trkpt lat="49.17811" lon="1.72526">
        <ele>143</ele>
        <time>2017-01-06T09:00:34Z</time>
      </trkpt>
      <trkpt lat="49.17808" lon="1.72519">
        <ele>141</ele>
        <time>2017-01-06T09:00:40Z</time>
      </trkpt>
      <trkpt lat="49.17805" lon="1.72502">
        <ele>139</ele>
        <time>2017-01-06T09:00:42Z</time>
      </trkpt>
      <trkpt lat="49.17805" lon="1.72511">
        <ele>138</ele>
        <time>2017-01-06T09:00:44Z</time>
      </trkpt>
      <trkpt lat="49.178" lon="1.72521">
        <ele>140</ele>
        <time>2017-01-06T09:00:51Z</time>
      </trkpt>
      <trkpt lat="49.17792" lon="1.72509">
        <ele>141</ele>
        <time>2017-01-06T09:00:55Z</time>
      </trkpt>
      <trkpt lat="49.17786" lon="1.72503">
        <ele>139</ele>
        <time>2017-01-06T09:00:58Z</time>
      </trkpt>
      <trkpt lat="49.17779" lon="1.72486">
        <ele>137</ele>
        <time>2017-01-06T09:01:05Z</time>
      </trkpt>
      <trkpt lat="49.17775" lon="1.72483">
        <ele>137</ele>
        <time>2017-01-06T09:01:09Z</time>
      </trkpt>
      <trkpt lat="49.17763" lon="1.72474">
        <ele>130</ele>
        <time>2017-01-06T09:01:17Z</time>
      </trkpt>
      <trkpt lat="49.17758" lon="1.72468">
        <ele>127</ele>
        <time>2017-01-06T09:01:21Z</time>
      </trkpt>
      <trkpt lat="49.17755" lon="1.72453">
        <ele>125</ele>
        <time>2017-01-06T09:01:31Z</time>
      </trkpt>
      <trkpt lat="49.17756" lon="1.72445">
        <ele>126</ele>
        <time>2017-01-06T09:01:36Z</time>
      </trkpt>
      <trkpt lat="49.17757" lon="1.72439">
        <ele>123</ele>
        <time>2017-01-06T09:01:40Z</time>
      </trkpt>
      <trkpt lat="49.17769" lon="1.72408">
        <ele>124</ele>
        <time>2017-01-06T09:01:58Z</time>
      </trkpt>
      <trkpt lat="49.1778" lon="1.72391">
        <ele>124</ele>
        <time>2017-01-06T09:02:08Z</time>
      </trkpt>
      <trkpt lat="49.17784" lon="1.72371">
        <ele>123</ele>
        <time>2017-01-06T09:02:15Z</time>
      </trkpt>
      <trkpt lat="49.17788" lon="1.72366">
        <ele>122</ele>
        <time>2017-01-06T09:02:20Z</time>
      </trkpt>
      <trkpt lat="49.17787" lon="1.72361">
        <ele>121</ele>
        <time>2017-01-06T09:02:24Z</time>
      </trkpt>
      <trkpt lat="49.17794" lon="1.72346">
        <ele>122</ele>
        <time>2017-01-06T09:02:35Z</time>
      </trkpt>
      <trkpt lat="49.1781" lon="1.72314">
        <ele>120</ele>
        <time>2017-01-06T09:02:53Z</time>
      </trkpt>
      <trkpt lat="49.17808" lon="1.7231">
        <ele>119</ele>
        <time>2017-01-06T09:02:55Z</time>
      </trkpt>
      <trkpt lat="49.17816" lon="1.72293">
        <ele>121</ele>
        <time>2017-01-06T09:03:03Z</time>
      </trkpt>
      <trkpt lat="49.17832" lon="1.72271">
        <ele>116</ele>
        <time>2017-01-06T09:03:16Z</time>
      </trkpt>
      <trkpt lat="49.17828" lon="1.72269">
        <ele>116</ele>
        <time>2017-01-06T09:03:18Z</time>
      </trkpt>
      <trkpt lat="49.17837" lon="1.72249">
        <ele>115</ele>
        <time>2017-01-06T09:03:30Z</time>
      </trkpt>
      <trkpt lat="49.17842" lon="1.72244">
        <ele>117</ele>
        <time>2017-01-06T09:03:33Z</time>
      </trkpt>
      <trkpt lat="49.17845" lon="1.72238">
        <ele>118</ele>
        <time>2017-01-06T09:03:36Z</time>
      </trkpt>
      <trkpt lat="49.1785" lon="1.72236">
        <ele>118</ele>
        <time>2017-01-06T09:03:38Z</time>
      </trkpt>
      <trkpt lat="49.1785" lon="1.7223">
        <ele>117</ele>
        <time>2017-01-06T09:03:44Z</time>
      </trkpt>
      <trkpt lat="49.17854" lon="1.72223">
        <ele>116</ele>
        <time>2017-01-06T09:03:48Z</time>
      </trkpt>
      <trkpt lat="49.17856" lon="1.7221">
        <ele>116</ele>
        <time>2017-01-06T09:03:55Z</time>
      </trkpt>
      <trkpt lat="49.1788" lon="1.72164">
        <ele>118</ele>
        <time>2017-01-06T09:04:26Z</time>
      </trkpt>
      <trkpt lat="49.17888" lon="1.72145">
        <ele>119</ele>
        <time>2017-01-06T09:04:37Z</time>
      </trkpt>
      <trkpt lat="49.17891" lon="1.72145">
        <ele>120</ele>
        <time>2017-01-06T09:04:38Z</time>
      </trkpt>
      <trkpt lat="49.17893" lon="1.7214">
        <ele>120</ele>
        <time>2017-01-06T09:04:41Z</time>
      </trkpt>
      <trkpt lat="49.17893" lon="1.7213">
        <ele>119</ele>
        <time>2017-01-06T09:04:47Z</time>
      </trkpt>
      <trkpt lat="49.17897" lon="1.7213">
        <ele>117</ele>
        <time>2017-01-06T09:04:49Z</time>
      </trkpt>
      <trkpt lat="49.179" lon="1.72127">
        <ele>116</ele>
        <time>2017-01-06T09:04:52Z</time>
      </trkpt>
      <trkpt lat="49.1791" lon="1.72097">
        <ele>111</ele>
        <time>2017-01-06T09:05:11Z</time>
      </trkpt>
      <trkpt lat="49.17927" lon="1.72066">
        <ele>114</ele>
        <time>2017-01-06T09:05:27Z</time>
      </trkpt>
      <trkpt lat="49.17923" lon="1.72064">
        <ele>114</ele>
        <time>2017-01-06T09:05:28Z</time>
      </trkpt>
      <trkpt lat="49.17931" lon="1.72056">
        <ele>115</ele>
        <time>2017-01-06T09:05:31Z</time>
      </trkpt>
      <trkpt lat="49.1793" lon="1.72051">
        <ele>112</ele>
        <time>2017-01-06T09:05:37Z</time>
      </trkpt>
      <trkpt lat="49.17932" lon="1.72046">
        <ele>112</ele>
        <time>2017-01-06T09:05:39Z</time>
      </trkpt>
      <trkpt lat="49.17936" lon="1.72045">
        <ele>113</ele>
        <time>2017-01-06T09:05:41Z</time>
      </trkpt>
      <trkpt lat="49.17937" lon="1.72039">
        <ele>113</ele>
        <time>2017-01-06T09:05:46Z</time>
      </trkpt>
      <trkpt lat="49.17941" lon="1.72032">
        <ele>113</ele>
        <time>2017-01-06T09:05:51Z</time>
      </trkpt>
      <trkpt lat="49.17955" lon="1.72007">
        <ele>114</ele>
        <time>2017-01-06T09:06:08Z</time>
      </trkpt>
      <trkpt lat="49.17955" lon="1.72001">
        <ele>114</ele>
        <time>2017-01-06T09:06:11Z</time>
      </trkpt>
      <trkpt lat="49.1796" lon="1.71992">
        <ele>117</ele>
        <time>2017-01-06T09:06:17Z</time>
      </trkpt>
      <trkpt lat="49.17963" lon="1.71988">
        <ele>117</ele>
        <time>2017-01-06T09:06:20Z</time>
      </trkpt>
      <trkpt lat="49.1796" lon="1.71985">
        <ele>117</ele>
        <time>2017-01-06T09:06:24Z</time>
      </trkpt>
      <trkpt lat="49.17959" lon="1.71979">
        <ele>116</ele>
        <time>2017-01-06T09:06:29Z</time>
      </trkpt>
      <trkpt lat="49.17963" lon="1.71977">
        <ele>116</ele>
        <time>2017-01-06T09:06:31Z</time>
      </trkpt>
      <trkpt lat="49.17971" lon="1.71966">
        <ele>115</ele>
        <time>2017-01-06T09:06:36Z</time>
      </trkpt>
      <trkpt lat="49.17976" lon="1.71963">
        <ele>116</ele>
        <time>2017-01-06T09:06:39Z</time>
      </trkpt>
      <trkpt lat="49.17991" lon="1.7193">
        <ele>120</ele>
        <time>2017-01-06T09:06:55Z</time>
      </trkpt>
      <trkpt lat="49.17995" lon="1.71921">
        <ele>119</ele>
        <time>2017-01-06T09:07:00Z</time>
      </trkpt>
      <trkpt lat="49.17995" lon="1.71916">
        <ele>116</ele>
        <time>2017-01-06T09:07:04Z</time>
      </trkpt>
      <trkpt lat="49.18014" lon="1.71868">
        <ele>113</ele>
        <time>2017-01-06T09:07:36Z</time>
      </trkpt>
      <trkpt lat="49.18017" lon="1.71865">
        <ele>114</ele>
        <time>2017-01-06T09:07:38Z</time>
      </trkpt>
      <trkpt lat="49.18043" lon="1.71822">
        <ele>114</ele>
        <time>2017-01-06T09:08:07Z</time>
      </trkpt>
      <trkpt lat="49.18041" lon="1.71819">
        <ele>114</ele>
        <time>2017-01-06T09:08:10Z</time>
      </trkpt>
      <trkpt lat="49.18041" lon="1.71815">
        <ele>115</ele>
        <time>2017-01-06T09:08:13Z</time>
      </trkpt>
      <trkpt lat="49.18051" lon="1.71802">
        <ele>118</ele>
        <time>2017-01-06T09:08:19Z</time>
      </trkpt>
      <trkpt lat="49.18053" lon="1.71792">
        <ele>114</ele>
        <time>2017-01-06T09:08:27Z</time>
      </trkpt>
      <trkpt lat="49.18057" lon="1.71789">
        <ele>113</ele>
        <time>2017-01-06T09:08:29Z</time>
      </trkpt>
      <trkpt lat="49.18059" lon="1.71784">
        <ele>114</ele>
        <time>2017-01-06T09:08:31Z</time>
      </trkpt>
      <trkpt lat="49.18063" lon="1.71779">
        <ele>116</ele>
        <time>2017-01-06T09:08:34Z</time>
      </trkpt>
      <trkpt lat="49.18064" lon="1.71773">
        <ele>117</ele>
        <time>2017-01-06T09:08:38Z</time>
      </trkpt>
      <trkpt lat="49.18071" lon="1.71756">
        <ele>116</ele>
        <time>2017-01-06T09:08:46Z</time>
      </trkpt>
      <trkpt lat="49.18072" lon="1.71749">
        <ele>114</ele>
        <time>2017-01-06T09:08:49Z</time>
      </trkpt>
      <trkpt lat="49.18076" lon="1.71741">
        <ele>112</ele>
        <time>2017-01-06T09:08:52Z</time>
      </trkpt>
      <trkpt lat="49.18081" lon="1.71736">
        <ele>113</ele>
        <time>2017-01-06T09:08:56Z</time>
      </trkpt>
      <trkpt lat="49.18081" lon="1.7173">
        <ele>112</ele>
        <time>2017-01-06T09:09:02Z</time>
      </trkpt>
      <trkpt lat="49.18087" lon="1.71725">
        <ele>111</ele>
        <time>2017-01-06T09:09:06Z</time>
      </trkpt>
      <trkpt lat="49.18088" lon="1.71722">
        <ele>111</ele>
        <time>2017-01-06T09:09:10Z</time>
      </trkpt>
      <trkpt lat="49.18088" lon="1.71717">
        <ele>110</ele>
        <time>2017-01-06T09:09:11Z</time>
      </trkpt>
      <trkpt lat="49.1809" lon="1.71709">
        <ele>108</ele>
        <time>2017-01-06T09:09:15Z</time>
      </trkpt>
      <trkpt lat="49.18093" lon="1.71703">
        <ele>108</ele>
        <time>2017-01-06T09:09:17Z</time>
      </trkpt>
      <trkpt lat="49.18093" lon="1.71697">
        <ele>108</ele>
        <time>2017-01-06T09:09:20Z</time>
      </trkpt>
      <trkpt lat="49.18099" lon="1.71689">
        <ele>110</ele>
        <time>2017-01-06T09:09:25Z</time>
      </trkpt>
      <trkpt lat="49.18103" lon="1.71687">
        <ele>109</ele>
        <time>2017-01-06T09:09:27Z</time>
      </trkpt>
      <trkpt lat="49.18104" lon="1.71682">
        <ele>109</ele>
        <time>2017-01-06T09:09:29Z</time>
      </trkpt>
      <trkpt lat="49.18112" lon="1.71671">
        <ele>110</ele>
        <time>2017-01-06T09:09:35Z</time>
      </trkpt>
      <trkpt lat="49.1811" lon="1.71667">
        <ele>110</ele>
        <time>2017-01-06T09:09:38Z</time>
      </trkpt>
      <trkpt lat="49.18119" lon="1.71657">
        <ele>112</ele>
        <time>2017-01-06T09:09:44Z</time>
      </trkpt>
      <trkpt lat="49.18127" lon="1.71641">
        <ele>116</ele>
        <time>2017-01-06T09:09:57Z</time>
      </trkpt>
      <trkpt lat="49.18127" lon="1.71635">
        <ele>117</ele>
        <time>2017-01-06T09:10:00Z</time>
      </trkpt>
      <trkpt lat="49.18133" lon="1.71624">
        <ele>118</ele>
        <time>2017-01-06T09:10:09Z</time>
      </trkpt>
      <trkpt lat="49.18138" lon="1.71616">
        <ele>121</ele>
        <time>2017-01-06T09:10:14Z</time>
      </trkpt>
      <trkpt lat="49.18139" lon="1.71612">
        <ele>121</ele>
        <time>2017-01-06T09:10:17Z</time>
      </trkpt>
      <trkpt lat="49.18144" lon="1.71604">
        <ele>120</ele>
        <time>2017-01-06T09:10:22Z</time>
      </trkpt>
      <trkpt lat="49.18145" lon="1.71599">
        <ele>120</ele>
        <time>2017-01-06T09:10:26Z</time>
      </trkpt>
      <trkpt lat="49.18151" lon="1.71589">
        <ele>121</ele>
        <time>2017-01-06T09:10:33Z</time>
      </trkpt>
      <trkpt lat="49.18152" lon="1.71584">
        <ele>120</ele>
        <time>2017-01-06T09:10:36Z</time>
      </trkpt>
      <trkpt lat="49.18156" lon="1.71577">
        <ele>118</ele>
        <time>2017-01-06T09:10:41Z</time>
      </trkpt>
      <trkpt lat="49.18159" lon="1.71566">
        <ele>118</ele>
        <time>2017-01-06T09:10:48Z</time>
      </trkpt>
      <trkpt lat="49.18165" lon="1.71558">
        <ele>117</ele>
        <time>2017-01-06T09:10:55Z</time>
      </trkpt>
      <trkpt lat="49.18167" lon="1.71554">
        <ele>117</ele>
        <time>2017-01-06T09:10:58Z</time>
      </trkpt>
      <trkpt lat="49.18182" lon="1.71519">
        <ele>112</ele>
        <time>2017-01-06T09:11:14Z</time>
      </trkpt>
      <trkpt lat="49.18191" lon="1.71495">
        <ele>111</ele>
        <time>2017-01-06T09:11:27Z</time>
      </trkpt>
      <trkpt lat="49.18204" lon="1.71479">
        <ele>113</ele>
        <time>2017-01-06T09:11:40Z</time>
      </trkpt>
      <trkpt lat="49.18209" lon="1.71461">
        <ele>115</ele>
        <time>2017-01-06T09:11:53Z</time>
      </trkpt>
      <trkpt lat="49.18213" lon="1.71451">
        <ele>114</ele>
        <time>2017-01-06T09:11:57Z</time>
      </trkpt>
      <trkpt lat="49.18212" lon="1.71446">
        <ele>113</ele>
        <time>2017-01-06T09:12:00Z</time>
      </trkpt>
      <trkpt lat="49.18207" lon="1.71434">
        <ele>112</ele>
        <time>2017-01-06T09:12:07Z</time>
      </trkpt>
      <trkpt lat="49.18204" lon="1.7143">
        <ele>112</ele>
        <time>2017-01-06T09:12:10Z</time>
      </trkpt>
      <trkpt lat="49.18199" lon="1.71412">
        <ele>113</ele>
        <time>2017-01-06T09:12:21Z</time>
      </trkpt>
      <trkpt lat="49.18201" lon="1.71407">
        <ele>118</ele>
        <time>2017-01-06T09:12:24Z</time>
      </trkpt>
      <trkpt lat="49.18201" lon="1.71398">
        <ele>124</ele>
        <time>2017-01-06T09:12:29Z</time>
      </trkpt>
      <trkpt lat="49.18196" lon="1.71396">
        <ele>126</ele>
        <time>2017-01-06T09:12:32Z</time>
      </trkpt>
      <trkpt lat="49.18196" lon="1.71387">
        <ele>127</ele>
        <time>2017-01-06T09:12:38Z</time>
      </trkpt>
      <trkpt lat="49.18196" lon="1.7138">
        <ele>128</ele>
        <time>2017-01-06T09:12:41Z</time>
      </trkpt>
      <trkpt lat="49.18191" lon="1.71369">
        <ele>129</ele>
        <time>2017-01-06T09:12:49Z</time>
      </trkpt>
      <trkpt lat="49.1819" lon="1.71362">
        <ele>129</ele>
        <time>2017-01-06T09:12:51Z</time>
      </trkpt>
      <trkpt lat="49.18185" lon="1.71356">
        <ele>127</ele>
        <time>2017-01-06T09:12:53Z</time>
      </trkpt>
      <trkpt lat="49.18185" lon="1.71348">
        <ele>126</ele>
        <time>2017-01-06T09:12:55Z</time>
      </trkpt>
      <trkpt lat="49.18183" lon="1.71344">
        <ele>125</ele>
        <time>2017-01-06T09:12:57Z</time>
      </trkpt>
      <trkpt lat="49.18179" lon="1.71314">
        <ele>124</ele>
        <time>2017-01-06T09:13:12Z</time>
      </trkpt>
      <trkpt lat="49.18175" lon="1.71297">
        <ele>119</ele>
        <time>2017-01-06T09:13:21Z</time>
      </trkpt>
      <trkpt lat="49.1817" lon="1.71292">
        <ele>118</ele>
        <time>2017-01-06T09:13:25Z</time>
      </trkpt>
      <trkpt lat="49.18164" lon="1.71283">
        <ele>114</ele>
        <time>2017-01-06T09:13:32Z</time>
      </trkpt>
      <trkpt lat="49.1816" lon="1.71262">
        <ele>111</ele>
        <time>2017-01-06T09:13:44Z</time>
      </trkpt>
      <trkpt lat="49.18156" lon="1.71256">
        <ele>110</ele>
        <time>2017-01-06T09:13:47Z</time>
      </trkpt>
      <trkpt lat="49.18154" lon="1.7125">
        <ele>110</ele>
        <time>2017-01-06T09:13:50Z</time>
      </trkpt>
      <trkpt lat="49.18156" lon="1.71242">
        <ele>112</ele>
        <time>2017-01-06T09:13:53Z</time>
      </trkpt>
      <trkpt lat="49.18153" lon="1.71227">
        <ele>117</ele>
        <time>2017-01-06T09:14:01Z</time>
      </trkpt>
      <trkpt lat="49.18154" lon="1.71219">
        <ele>117</ele>
        <time>2017-01-06T09:14:05Z</time>
      </trkpt>
      <trkpt lat="49.1814" lon="1.71195">
        <ele>115</ele>
        <time>2017-01-06T09:14:19Z</time>
      </trkpt>
      <trkpt lat="49.18141" lon="1.71188">
        <ele>118</ele>
        <time>2017-01-06T09:14:23Z</time>
      </trkpt>
      <trkpt lat="49.18138" lon="1.71183">
        <ele>120</ele>
        <time>2017-01-06T09:14:27Z</time>
      </trkpt>
      <trkpt lat="49.18126" lon="1.71144">
        <ele>128</ele>
        <time>2017-01-06T09:14:48Z</time>
      </trkpt>
      <trkpt lat="49.18126" lon="1.71136">
        <ele>128</ele>
        <time>2017-01-06T09:14:51Z</time>
      </trkpt>
      <trkpt lat="49.18123" lon="1.7112">
        <ele>132</ele>
        <time>2017-01-06T09:14:59Z</time>
      </trkpt>
      <trkpt lat="49.18121" lon="1.71111">
        <ele>128</ele>
        <time>2017-01-06T09:15:03Z</time>
      </trkpt>
      <trkpt lat="49.1812" lon="1.71105">
        <ele>125</ele>
        <time>2017-01-06T09:15:05Z</time>
      </trkpt>
      <trkpt lat="49.18121" lon="1.711">
        <ele>125</ele>
        <time>2017-01-06T09:15:08Z</time>
      </trkpt>
      <trkpt lat="49.18119" lon="1.71095">
        <ele>125</ele>
        <time>2017-01-06T09:15:10Z</time>
      </trkpt>
      <trkpt lat="49.18116" lon="1.71096">
        <ele>125</ele>
        <time>2017-01-06T09:15:11Z</time>
      </trkpt>
      <trkpt lat="49.18115" lon="1.7109">
        <ele>126</ele>
        <time>2017-01-06T09:15:14Z</time>
      </trkpt>
      <trkpt lat="49.18112" lon="1.71088">
        <ele>128</ele>
        <time>2017-01-06T09:15:17Z</time>
      </trkpt>
      <trkpt lat="49.18112" lon="1.71077">
        <ele>129</ele>
        <time>2017-01-06T09:15:22Z</time>
      </trkpt>
      <trkpt lat="49.18112" lon="1.71072">
        <ele>127</ele>
        <time>2017-01-06T09:15:25Z</time>
      </trkpt>
      <trkpt lat="49.1811" lon="1.71065">
        <ele>127</ele>
        <time>2017-01-06T09:15:29Z</time>
      </trkpt>
      <trkpt lat="49.18107" lon="1.71054">
        <ele>124</ele>
        <time>2017-01-06T09:15:39Z</time>
      </trkpt>
      <trkpt lat="49.18108" lon="1.7105">
        <ele>124</ele>
        <time>2017-01-06T09:15:41Z</time>
      </trkpt>
      <trkpt lat="49.18104" lon="1.71041">
        <ele>126</ele>
        <time>2017-01-06T09:15:45Z</time>
      </trkpt>
      <trkpt lat="49.18102" lon="1.71029">
        <ele>126</ele>
        <time>2017-01-06T09:15:52Z</time>
      </trkpt>
      <trkpt lat="49.18103" lon="1.71022">
        <ele>126</ele>
        <time>2017-01-06T09:15:54Z</time>
      </trkpt>
      <trkpt lat="49.18099" lon="1.71017">
        <ele>126</ele>
        <time>2017-01-06T09:15:58Z</time>
      </trkpt>
      <trkpt lat="49.18099" lon="1.71005">
        <ele>127</ele>
        <time>2017-01-06T09:16:05Z</time>
      </trkpt>
      <trkpt lat="49.18097" lon="1.71002">
        <ele>127</ele>
        <time>2017-01-06T09:16:07Z</time>
      </trkpt>
      <trkpt lat="49.18098" lon="1.70991">
        <ele>128</ele>
        <time>2017-01-06T09:16:11Z</time>
      </trkpt>
      <trkpt lat="49.18096" lon="1.70979">
        <ele>129</ele>
        <time>2017-01-06T09:16:19Z</time>
      </trkpt>
      <trkpt lat="49.18105" lon="1.70952">
        <ele>129</ele>
        <time>2017-01-06T09:16:36Z</time>
      </trkpt>
      <trkpt lat="49.18109" lon="1.70944">
        <ele>129</ele>
        <time>2017-01-06T09:16:41Z</time>
      </trkpt>
      <trkpt lat="49.18113" lon="1.70941">
        <ele>129</ele>
        <time>2017-01-06T09:16:44Z</time>
      </trkpt>
      <trkpt lat="49.18116" lon="1.70926">
        <ele>129</ele>
        <time>2017-01-06T09:16:56Z</time>
      </trkpt>
      <trkpt lat="49.18123" lon="1.7092">
        <ele>127</ele>
        <time>2017-01-06T09:17:03Z</time>
      </trkpt>
      <trkpt lat="49.18128" lon="1.70918">
        <ele>128</ele>
        <time>2017-01-06T09:17:08Z</time>
      </trkpt>
      <trkpt lat="49.18131" lon="1.70912">
        <ele>128</ele>
        <time>2017-01-06T09:17:11Z</time>
      </trkpt>
      <trkpt lat="49.18135" lon="1.70909">
        <ele>130</ele>
        <time>2017-01-06T09:17:15Z</time>
      </trkpt>
      <trkpt lat="49.18155" lon="1.70882">
        <ele>131</ele>
        <time>2017-01-06T09:17:37Z</time>
      </trkpt>
      <trkpt lat="49.1816" lon="1.7087">
        <ele>132</ele>
        <time>2017-01-06T09:17:43Z</time>
      </trkpt>
      <trkpt lat="49.18163" lon="1.70868">
        <ele>133</ele>
        <time>2017-01-06T09:17:45Z</time>
      </trkpt>
      <trkpt lat="49.18164" lon="1.70858">
        <ele>135</ele>
        <time>2017-01-06T09:17:50Z</time>
      </trkpt>
      <trkpt lat="49.18163" lon="1.70853">
        <ele>135</ele>
        <time>2017-01-06T09:17:52Z</time>
      </trkpt>
      <trkpt lat="49.18165" lon="1.7085">
        <ele>136</ele>
        <time>2017-01-06T09:17:54Z</time>
      </trkpt>
      <trkpt lat="49.18168" lon="1.7084">
        <ele>134</ele>
        <time>2017-01-06T09:18:00Z</time>
      </trkpt>
      <trkpt lat="49.18168" lon="1.70833">
        <ele>135</ele>
        <time>2017-01-06T09:18:03Z</time>
      </trkpt>
      <trkpt lat="49.1817" lon="1.70829">
        <ele>136</ele>
        <time>2017-01-06T09:18:05Z</time>
      </trkpt>
      <trkpt lat="49.18165" lon="1.7081">
        <ele>141</ele>
        <time>2017-01-06T09:18:17Z</time>
      </trkpt>
      <trkpt lat="49.18166" lon="1.70806">
        <ele>141</ele>
        <time>2017-01-06T09:18:19Z</time>
      </trkpt>
      <trkpt lat="49.18163" lon="1.70802">
        <ele>143</ele>
        <time>2017-01-06T09:18:22Z</time>
      </trkpt>
      <trkpt lat="49.18164" lon="1.70798">
        <ele>141</ele>
        <time>2017-01-06T09:18:25Z</time>
      </trkpt>
      <trkpt lat="49.18157" lon="1.70788">
        <ele>139</ele>
        <time>2017-01-06T09:18:34Z</time>
      </trkpt>
      <trkpt lat="49.18155" lon="1.70778">
        <ele>141</ele>
        <time>2017-01-06T09:18:39Z</time>
      </trkpt>
      <trkpt lat="49.18153" lon="1.70774">
        <ele>139</ele>
        <time>2017-01-06T09:18:41Z</time>
      </trkpt>
      <trkpt lat="49.1815" lon="1.70776">
        <ele>139</ele>
        <time>2017-01-06T09:18:43Z</time>
      </trkpt>
      <trkpt lat="49.18147" lon="1.70771">
        <ele>137</ele>
        <time>2017-01-06T09:18:48Z</time>
      </trkpt>
      <trkpt lat="49.18142" lon="1.70771">
        <ele>137</ele>
        <time>2017-01-06T09:18:50Z</time>
      </trkpt>
      <trkpt lat="49.18141" lon="1.70767">
        <ele>137</ele>
        <time>2017-01-06T09:18:52Z</time>
      </trkpt>
      <trkpt lat="49.18139" lon="1.70764">
        <ele>137</ele>
        <time>2017-01-06T09:18:54Z</time>
      </trkpt>
      <trkpt lat="49.18133" lon="1.70761">
        <ele>138</ele>
        <time>2017-01-06T09:18:59Z</time>
      </trkpt>
      <trkpt lat="49.18131" lon="1.70757">
        <ele>138</ele>
        <time>2017-01-06T09:19:03Z</time>
      </trkpt>
      <trkpt lat="49.18128" lon="1.70756">
        <ele>139</ele>
        <time>2017-01-06T09:19:05Z</time>
      </trkpt>
      <trkpt lat="49.18108" lon="1.70734">
        <ele>141</ele>
        <time>2017-01-06T09:19:26Z</time>
      </trkpt>
      <trkpt lat="49.18104" lon="1.70733">
        <ele>141</ele>
        <time>2017-01-06T09:19:29Z</time>
      </trkpt>
      <trkpt lat="49.18098" lon="1.70721">
        <ele>143</ele>
        <time>2017-01-06T09:19:36Z</time>
      </trkpt>
      <trkpt lat="49.18094" lon="1.70713">
        <ele>148</ele>
        <time>2017-01-06T09:19:40Z</time>
      </trkpt>
      <trkpt lat="49.18072" lon="1.70696">
        <ele>146</ele>
        <time>2017-01-06T09:20:02Z</time>
      </trkpt>
      <trkpt lat="49.18062" lon="1.70683">
        <ele>145</ele>
        <time>2017-01-06T09:20:14Z</time>
      </trkpt>
      <trkpt lat="49.18046" lon="1.70676">
        <ele>141</ele>
        <time>2017-01-06T09:20:22Z</time>
      </trkpt>
      <trkpt lat="49.18043" lon="1.7068">
        <ele>142</ele>
        <time>2017-01-06T09:20:25Z</time>
      </trkpt>
      <trkpt lat="49.18038" lon="1.70674">
        <ele>140</ele>
        <time>2017-01-06T09:20:30Z</time>
      </trkpt>
      <trkpt lat="49.18033" lon="1.7067">
        <ele>141</ele>
        <time>2017-01-06T09:20:32Z</time>
      </trkpt>
      <trkpt lat="49.1803" lon="1.7067">
        <ele>141</ele>
        <time>2017-01-06T09:20:37Z</time>
      </trkpt>
      <trkpt lat="49.18027" lon="1.70667">
        <ele>140</ele>
        <time>2017-01-06T09:20:40Z</time>
      </trkpt>
      <trkpt lat="49.18024" lon="1.70666">
        <ele>140</ele>
        <time>2017-01-06T09:20:42Z</time>
      </trkpt>
      <trkpt lat="49.18022" lon="1.70665">
        <ele>141</ele>
        <time>2017-01-06T09:20:44Z</time>
      </trkpt>
      <trkpt lat="49.17986" lon="1.70639">
        <ele>136</ele>
        <time>2017-01-06T09:21:16Z</time>
      </trkpt>
      <trkpt lat="49.17983" lon="1.70639">
        <ele>135</ele>
        <time>2017-01-06T09:21:18Z</time>
      </trkpt>
      <trkpt lat="49.17972" lon="1.70627">
        <ele>137</ele>
        <time>2017-01-06T09:21:30Z</time>
      </trkpt>
      <trkpt lat="49.17969" lon="1.70624">
        <ele>137</ele>
        <time>2017-01-06T09:21:32Z</time>
      </trkpt>
      <trkpt lat="49.17964" lon="1.70623">
        <ele>138</ele>
        <time>2017-01-06T09:21:35Z</time>
      </trkpt>
      <trkpt lat="49.17961" lon="1.70619">
        <ele>139</ele>
        <time>2017-01-06T09:21:39Z</time>
      </trkpt>
      <trkpt lat="49.17951" lon="1.70609">
        <ele>141</ele>
        <time>2017-01-06T09:21:48Z</time>
      </trkpt>
      <trkpt lat="49.17948" lon="1.70603">
        <ele>141</ele>
        <time>2017-01-06T09:21:52Z</time>
      </trkpt>
      <trkpt lat="49.17943" lon="1.706">
        <ele>139</ele>
        <time>2017-01-06T09:21:55Z</time>
      </trkpt>
      <trkpt lat="49.17916" lon="1.70589">
        <ele>139</ele>
        <time>2017-01-06T09:22:16Z</time>
      </trkpt>
      <trkpt lat="49.17912" lon="1.70583">
        <ele>138</ele>
        <time>2017-01-06T09:22:19Z</time>
      </trkpt>
      <trkpt lat="49.17899" lon="1.70576">
        <ele>137</ele>
        <time>2017-01-06T09:22:27Z</time>
      </trkpt>
      <trkpt lat="49.17897" lon="1.70577">
        <ele>137</ele>
        <time>2017-01-06T09:22:28Z</time>
      </trkpt>
      <trkpt lat="49.17866" lon="1.70561">
        <ele>138</ele>
        <time>2017-01-06T09:22:52Z</time>
      </trkpt>
      <trkpt lat="49.17864" lon="1.70556">
        <ele>139</ele>
        <time>2017-01-06T09:22:55Z</time>
      </trkpt>
      <trkpt lat="49.17861" lon="1.70546">
        <ele>139</ele>
        <time>2017-01-06T09:23:01Z</time>
      </trkpt>
      <trkpt lat="49.17859" lon="1.70544">
        <ele>140</ele>
        <time>2017-01-06T09:23:04Z</time>
      </trkpt>
      <trkpt lat="49.17848" lon="1.70542">
        <ele>143</ele>
        <time>2017-01-06T09:23:12Z</time>
      </trkpt>
      <trkpt lat="49.17846" lon="1.70536">
        <ele>142</ele>
        <time>2017-01-06T09:23:17Z</time>
      </trkpt>
      <trkpt lat="49.17846" lon="1.70527">
        <ele>141</ele>
        <time>2017-01-06T09:23:19Z</time>
      </trkpt>
      <trkpt lat="49.17842" lon="1.70526">
        <ele>142</ele>
        <time>2017-01-06T09:23:22Z</time>
      </trkpt>
      <trkpt lat="49.17833" lon="1.70518">
        <ele>144</ele>
        <time>2017-01-06T09:23:32Z</time>
      </trkpt>
      <trkpt lat="49.1783" lon="1.70511">
        <ele>144</ele>
        <time>2017-01-06T09:23:34Z</time>
      </trkpt>
      <trkpt lat="49.17823" lon="1.70508">
        <ele>142</ele>
        <time>2017-01-06T09:23:43Z</time>
      </trkpt>
      <trkpt lat="49.17819" lon="1.7049">
        <ele>139</ele>
        <time>2017-01-06T09:23:49Z</time>
      </trkpt>
      <trkpt lat="49.17814" lon="1.70477">
        <ele>137</ele>
        <time>2017-01-06T09:23:54Z</time>
      </trkpt>
      <trkpt lat="49.17803" lon="1.70462">
        <ele>136</ele>
        <time>2017-01-06T09:24:04Z</time>
      </trkpt>
      <trkpt lat="49.17795" lon="1.70448">
        <ele>136</ele>
        <time>2017-01-06T09:24:14Z</time>
      </trkpt>
      <trkpt lat="49.1778" lon="1.70411">
        <ele>135</ele>
        <time>2017-01-06T09:24:38Z</time>
      </trkpt>
      <trkpt lat="49.17778" lon="1.70401">
        <ele>133</ele>
        <time>2017-01-06T09:24:42Z</time>
      </trkpt>
      <trkpt lat="49.1778" lon="1.7039">
        <ele>133</ele>
        <time>2017-01-06T09:24:47Z</time>
      </trkpt>
      <trkpt lat="49.17778" lon="1.7038">
        <ele>131</ele>
        <time>2017-01-06T09:24:52Z</time>
      </trkpt>
      <trkpt lat="49.17778" lon="1.70373">
        <ele>131</ele>
        <time>2017-01-06T09:24:57Z</time>
      </trkpt>
      <trkpt lat="49.17775" lon="1.70368">
        <ele>129</ele>
        <time>2017-01-06T09:25:00Z</time>
      </trkpt>
      <trkpt lat="49.17775" lon="1.70361">
        <ele>128</ele>
        <time>2017-01-06T09:25:03Z</time>
      </trkpt>
      <trkpt lat="49.17773" lon="1.70354">
        <ele>128</ele>
        <time>2017-01-06T09:25:07Z</time>
      </trkpt>
      <trkpt lat="49.17776" lon="1.70342">
        <ele>128</ele>
        <time>2017-01-06T09:25:13Z</time>
      </trkpt>
      <trkpt lat="49.1777" lon="1.70341">
        <ele>128</ele>
        <time>2017-01-06T09:25:16Z</time>
      </trkpt>
      <trkpt lat="49.17773" lon="1.70335">
        <ele>127</ele>
        <time>2017-01-06T09:25:18Z</time>
      </trkpt>
      <trkpt lat="49.17776" lon="1.70321">
        <ele>126</ele>
        <time>2017-01-06T09:25:26Z</time>
      </trkpt>
      <trkpt lat="49.17779" lon="1.70317">
        <ele>126</ele>
        <time>2017-01-06T09:25:28Z</time>
      </trkpt>
      <trkpt lat="49.17777" lon="1.70307">
        <ele>126</ele>
        <time>2017-01-06T09:25:31Z</time>
      </trkpt>
      <trkpt lat="49.17774" lon="1.703">
        <ele>124</ele>
        <time>2017-01-06T09:25:34Z</time>
      </trkpt>
      <trkpt lat="49.17776" lon="1.70293">
        <ele>122</ele>
        <time>2017-01-06T09:25:40Z</time>
      </trkpt>
      <trkpt lat="49.17778" lon="1.70286">
        <ele>119</ele>
        <time>2017-01-06T09:25:44Z</time>
      </trkpt>
      <trkpt lat="49.17777" lon="1.70279">
        <ele>118</ele>
        <time>2017-01-06T09:25:48Z</time>
      </trkpt>
      <trkpt lat="49.1778" lon="1.70263">
        <ele>119</ele>
        <time>2017-01-06T09:25:57Z</time>
      </trkpt>
      <trkpt lat="49.17776" lon="1.70252">
        <ele>117</ele>
        <time>2017-01-06T09:26:02Z</time>
      </trkpt>
      <trkpt lat="49.17773" lon="1.70244">
        <ele>117</ele>
        <time>2017-01-06T09:26:06Z</time>
      </trkpt>
      <trkpt lat="49.17775" lon="1.70232">
        <ele>117</ele>
        <time>2017-01-06T09:26:10Z</time>
      </trkpt>
      <trkpt lat="49.17775" lon="1.70223">
        <ele>117</ele>
        <time>2017-01-06T09:26:14Z</time>
      </trkpt>
      <trkpt lat="49.17777" lon="1.70218">
        <ele>117</ele>
        <time>2017-01-06T09:26:16Z</time>
      </trkpt>
      <trkpt lat="49.17781" lon="1.70195">
        <ele>118</ele>
        <time>2017-01-06T09:26:26Z</time>
      </trkpt>
      <trkpt lat="49.17776" lon="1.70182">
        <ele>118</ele>
        <time>2017-01-06T09:26:34Z</time>
      </trkpt>
      <trkpt lat="49.17778" lon="1.70168">
        <ele>117</ele>
        <time>2017-01-06T09:26:40Z</time>
      </trkpt>
      <trkpt lat="49.17777" lon="1.70161">
        <ele>117</ele>
        <time>2017-01-06T09:26:43Z</time>
      </trkpt>
      <trkpt lat="49.17781" lon="1.70136">
        <ele>115</ele>
        <time>2017-01-06T09:26:56Z</time>
      </trkpt>
      <trkpt lat="49.17782" lon="1.70131">
        <ele>113</ele>
        <time>2017-01-06T09:26:59Z</time>
      </trkpt>
      <trkpt lat="49.17781" lon="1.70126">
        <ele>112</ele>
        <time>2017-01-06T09:27:02Z</time>
      </trkpt>
      <trkpt lat="49.17778" lon="1.70122">
        <ele>111</ele>
        <time>2017-01-06T09:27:04Z</time>
      </trkpt>
      <trkpt lat="49.17774" lon="1.7012">
        <ele>111</ele>
        <time>2017-01-06T09:27:06Z</time>
      </trkpt>
      <trkpt lat="49.17777" lon="1.70117">
        <ele>111</ele>
        <time>2017-01-06T09:27:08Z</time>
      </trkpt>
      <trkpt lat="49.17776" lon="1.70111">
        <ele>113</ele>
        <time>2017-01-06T09:27:12Z</time>
      </trkpt>
      <trkpt lat="49.17786" lon="1.70085">
        <ele>118</ele>
        <time>2017-01-06T09:27:26Z</time>
      </trkpt>
      <trkpt lat="49.17783" lon="1.70083">
        <ele>117</ele>
        <time>2017-01-06T09:27:28Z</time>
      </trkpt>
      <trkpt lat="49.17786" lon="1.70078">
        <ele>117</ele>
        <time>2017-01-06T09:27:30Z</time>
      </trkpt>
      <trkpt lat="49.17787" lon="1.70073">
        <ele>117</ele>
        <time>2017-01-06T09:27:33Z</time>
      </trkpt>
      <trkpt lat="49.17787" lon="1.70047">
        <ele>120</ele>
        <time>2017-01-06T09:27:45Z</time>
      </trkpt>
      <trkpt lat="49.17782" lon="1.70045">
        <ele>120</ele>
        <time>2017-01-06T09:27:46Z</time>
      </trkpt>
      <trkpt lat="49.17781" lon="1.70037">
        <ele>119</ele>
        <time>2017-01-06T09:27:51Z</time>
      </trkpt>
      <trkpt lat="49.1778" lon="1.7003">
        <ele>118</ele>
        <time>2017-01-06T09:27:53Z</time>
      </trkpt>
      <trkpt lat="49.17782" lon="1.70002">
        <ele>118</ele>
        <time>2017-01-06T09:28:04Z</time>
      </trkpt>
      <trkpt lat="49.17782" lon="1.69988">
        <ele>116</ele>
        <time>2017-01-06T09:28:12Z</time>
      </trkpt>
      <trkpt lat="49.17785" lon="1.69983">
        <ele>118</ele>
        <time>2017-01-06T09:28:16Z</time>
      </trkpt>
      <trkpt lat="49.17783" lon="1.69979">
        <ele>120</ele>
        <time>2017-01-06T09:28:19Z</time>
      </trkpt>
      <trkpt lat="49.17785" lon="1.69975">
        <ele>121</ele>
        <time>2017-01-06T09:28:21Z</time>
      </trkpt>
      <trkpt lat="49.17784" lon="1.69963">
        <ele>123</ele>
        <time>2017-01-06T09:28:28Z</time>
      </trkpt>
      <trkpt lat="49.17785" lon="1.69958">
        <ele>123</ele>
        <time>2017-01-06T09:28:31Z</time>
      </trkpt>
      <trkpt lat="49.17785" lon="1.69947">
        <ele>124</ele>
        <time>2017-01-06T09:28:37Z</time>
      </trkpt>
      <trkpt lat="49.17787" lon="1.69943">
        <ele>123</ele>
        <time>2017-01-06T09:28:40Z</time>
      </trkpt>
      <trkpt lat="49.17785" lon="1.69929">
        <ele>120</ele>
        <time>2017-01-06T09:28:48Z</time>
      </trkpt>
      <trkpt lat="49.17786" lon="1.69924">
        <ele>120</ele>
        <time>2017-01-06T09:28:51Z</time>
      </trkpt>
      <trkpt lat="49.17783" lon="1.69916">
        <ele>120</ele>
        <time>2017-01-06T09:28:55Z</time>
      </trkpt>
      <trkpt lat="49.17783" lon="1.69893">
        <ele>118</ele>
        <time>2017-01-06T09:29:08Z</time>
      </trkpt>
      <trkpt lat="49.17782" lon="1.69889">
        <ele>119</ele>
        <time>2017-01-06T09:29:11Z</time>
      </trkpt>
      <trkpt lat="49.17785" lon="1.69879">
        <ele>119</ele>
        <time>2017-01-06T09:29:17Z</time>
      </trkpt>
      <trkpt lat="49.17785" lon="1.69859">
        <ele>119</ele>
        <time>2017-01-06T09:29:29Z</time>
      </trkpt>
      <trkpt lat="49.17782" lon="1.69858">
        <ele>119</ele>
        <time>2017-01-06T09:29:32Z</time>
      </trkpt>
      <trkpt lat="49.17777" lon="1.69857">
        <ele>119</ele>
        <time>2017-01-06T09:29:35Z</time>
      </trkpt>
      <trkpt lat="49.17771" lon="1.69854">
        <ele>121</ele>
        <time>2017-01-06T09:29:40Z</time>
      </trkpt>
      <trkpt lat="49.17762" lon="1.69859">
        <ele>121</ele>
        <time>2017-01-06T09:29:49Z</time>
      </trkpt>
      <trkpt lat="49.17754" lon="1.69858">
        <ele>121</ele>
        <time>2017-01-06T09:29:53Z</time>
      </trkpt>
      <trkpt lat="49.17743" lon="1.69852">
        <ele>124</ele>
        <time>2017-01-06T09:29:58Z</time>
      </trkpt>
      <trkpt lat="49.17741" lon="1.69852">
        <ele>124</ele>
        <time>2017-01-06T09:29:59Z</time>
      </trkpt>
      <trkpt lat="49.17738" lon="1.69855">
        <ele>125</ele>
        <time>2017-01-06T09:30:01Z</time>
      </trkpt>
      <trkpt lat="49.17736" lon="1.69856">
        <ele>126</ele>
        <time>2017-01-06T09:30:03Z</time>
      </trkpt>
      <trkpt lat="49.17728" lon="1.69862">
        <ele>125</ele>
        <time>2017-01-06T09:30:09Z</time>
      </trkpt>
      <trkpt lat="49.17725" lon="1.69861">
        <ele>125</ele>
        <time>2017-01-06T09:30:16Z</time>
      </trkpt>
      <trkpt lat="49.17723" lon="1.69862">
        <ele>123</ele>
        <time>2017-01-06T09:30:20Z</time>
      </trkpt>
      <trkpt lat="49.17714" lon="1.69862">
        <ele>125</ele>
        <time>2017-01-06T09:30:30Z</time>
      </trkpt>
      <trkpt lat="49.17695" lon="1.69864">
        <ele>138</ele>
        <time>2017-01-06T09:30:41Z</time>
      </trkpt>
      <trkpt lat="49.17678" lon="1.69871">
        <ele>129</ele>
        <time>2017-01-06T09:30:52Z</time>
      </trkpt>
      <trkpt lat="49.17675" lon="1.6987">
        <ele>131</ele>
        <time>2017-01-06T09:30:55Z</time>
      </trkpt>
      <trkpt lat="49.17669" lon="1.69874">
        <ele>132</ele>
        <time>2017-01-06T09:30:59Z</time>
      </trkpt>
      <trkpt lat="49.1766" lon="1.69873">
        <ele>133</ele>
        <time>2017-01-06T09:31:04Z</time>
      </trkpt>
      <trkpt lat="49.17658" lon="1.69877">
        <ele>133</ele>
        <time>2017-01-06T09:31:05Z</time>
      </trkpt>
      <trkpt lat="49.17654" lon="1.69879">
        <ele>135</ele>
        <time>2017-01-06T09:31:07Z</time>
      </trkpt>
      <trkpt lat="49.17645" lon="1.69879">
        <ele>136</ele>
        <time>2017-01-06T09:31:11Z</time>
      </trkpt>
      <trkpt lat="49.1764" lon="1.69882">
        <ele>136</ele>
        <time>2017-01-06T09:31:14Z</time>
      </trkpt>
      <trkpt lat="49.17626" lon="1.69886">
        <ele>139</ele>
        <time>2017-01-06T09:31:22Z</time>
      </trkpt>
      <trkpt lat="49.17621" lon="1.69884">
        <ele>141</ele>
        <time>2017-01-06T09:31:25Z</time>
      </trkpt>
      <trkpt lat="49.17611" lon="1.69885">
        <ele>146</ele>
        <time>2017-01-06T09:31:32Z</time>
      </trkpt>
      <trkpt lat="49.17605" lon="1.69881">
        <ele>147</ele>
        <time>2017-01-06T09:31:36Z</time>
      </trkpt>
      <trkpt lat="49.17592" lon="1.69884">
        <ele>149</ele>
        <time>2017-01-06T09:31:44Z</time>
      </trkpt>
      <trkpt lat="49.17588" lon="1.69878">
        <ele>151</ele>
        <time>2017-01-06T09:31:47Z</time>
      </trkpt>
      <trkpt lat="49.17584" lon="1.69877">
        <ele>152</ele>
        <time>2017-01-06T09:31:53Z</time>
      </trkpt>
      <trkpt lat="49.17576" lon="1.69882">
        <ele>142</ele>
        <time>2017-01-06T09:32:04Z</time>
      </trkpt>
      <trkpt lat="49.17574" lon="1.69885">
        <ele>140</ele>
        <time>2017-01-06T09:32:08Z</time>
      </trkpt>
      <trkpt lat="49.17574" lon="1.69892">
        <ele>134</ele>
        <time>2017-01-06T09:32:11Z</time>
      </trkpt>
      <trkpt lat="49.17566" lon="1.6989">
        <ele>132</ele>
        <time>2017-01-06T09:32:17Z</time>
      </trkpt>
      <trkpt lat="49.17563" lon="1.69892">
        <ele>130</ele>
        <time>2017-01-06T09:32:20Z</time>
      </trkpt>
      <trkpt lat="49.1756" lon="1.69887">
        <ele>130</ele>
        <time>2017-01-06T09:32:22Z</time>
      </trkpt>
      <trkpt lat="49.17548" lon="1.69899">
        <ele>125</ele>
        <time>2017-01-06T09:32:36Z</time>
      </trkpt>
      <trkpt lat="49.17534" lon="1.69898">
        <ele>125</ele>
        <time>2017-01-06T09:32:45Z</time>
      </trkpt>
      <trkpt lat="49.17528" lon="1.69901">
        <ele>126</ele>
        <time>2017-01-06T09:32:49Z</time>
      </trkpt>
      <trkpt lat="49.17518" lon="1.69903">
        <ele>127</ele>
        <time>2017-01-06T09:32:57Z</time>
      </trkpt>
      <trkpt lat="49.17515" lon="1.69903">
        <ele>128</ele>
        <time>2017-01-06T09:32:59Z</time>
      </trkpt>
      <trkpt lat="49.17503" lon="1.699">
        <ele>135</ele>
        <time>2017-01-06T09:33:08Z</time>
      </trkpt>
      <trkpt lat="49.17501" lon="1.69904">
        <ele>136</ele>
        <time>2017-01-06T09:33:10Z</time>
      </trkpt>
      <trkpt lat="49.17497" lon="1.69903">
        <ele>137</ele>
        <time>2017-01-06T09:33:13Z</time>
      </trkpt>
      <trkpt lat="49.17492" lon="1.69906">
        <ele>135</ele>
        <time>2017-01-06T09:33:18Z</time>
      </trkpt>
      <trkpt lat="49.17488" lon="1.69907">
        <ele>134</ele>
        <time>2017-01-06T09:33:20Z</time>
      </trkpt>
      <trkpt lat="49.17474" lon="1.69909">
        <ele>137</ele>
        <time>2017-01-06T09:33:31Z</time>
      </trkpt>
      <trkpt lat="49.17465" lon="1.69914">
        <ele>138</ele>
        <time>2017-01-06T09:33:42Z</time>
      </trkpt>
      <trkpt lat="49.17457" lon="1.6991">
        <ele>136</ele>
        <time>2017-01-06T09:33:46Z</time>
      </trkpt>
      <trkpt lat="49.1745" lon="1.6991">
        <ele>136</ele>
        <time>2017-01-06T09:33:50Z</time>
      </trkpt>
      <trkpt lat="49.17442" lon="1.69913">
        <ele>134</ele>
        <time>2017-01-06T09:33:57Z</time>
      </trkpt>
      <trkpt lat="49.17439" lon="1.69911">
        <ele>134</ele>
        <time>2017-01-06T09:33:59Z</time>
      </trkpt>
      <trkpt lat="49.17435" lon="1.69912">
        <ele>133</ele>
        <time>2017-01-06T09:34:02Z</time>
      </trkpt>
      <trkpt lat="49.17433" lon="1.69915">
        <ele>133</ele>
        <time>2017-01-06T09:34:05Z</time>
      </trkpt>
      <trkpt lat="49.17427" lon="1.69913">
        <ele>128</ele>
        <time>2017-01-06T09:34:11Z</time>
      </trkpt>
      <trkpt lat="49.17384" lon="1.69914">
        <ele>135</ele>
        <time>2017-01-06T09:34:42Z</time>
      </trkpt>
      <trkpt lat="49.17363" lon="1.69913">
        <ele>135</ele>
        <time>2017-01-06T09:34:53Z</time>
      </trkpt>
      <trkpt lat="49.17358" lon="1.69912">
        <ele>140</ele>
        <time>2017-01-06T09:34:56Z</time>
      </trkpt>
      <trkpt lat="49.17348" lon="1.69917">
        <ele>140</ele>
        <time>2017-01-06T09:35:05Z</time>
      </trkpt>
      <trkpt lat="49.17338" lon="1.69922">
        <ele>143</ele>
        <time>2017-01-06T09:35:18Z</time>
      </trkpt>
      <trkpt lat="49.17325" lon="1.69916">
        <ele>143</ele>
        <time>2017-01-06T09:35:30Z</time>
      </trkpt>
      <trkpt lat="49.17323" lon="1.69921">
        <ele>142</ele>
        <time>2017-01-06T09:35:35Z</time>
      </trkpt>
      <trkpt lat="49.17319" lon="1.69923">
        <ele>137</ele>
        <time>2017-01-06T09:35:39Z</time>
      </trkpt>
      <trkpt lat="49.17312" lon="1.69924">
        <ele>136</ele>
        <time>2017-01-06T09:35:46Z</time>
      </trkpt>
      <trkpt lat="49.17309" lon="1.69923">
        <ele>135</ele>
        <time>2017-01-06T09:35:48Z</time>
      </trkpt>
      <trkpt lat="49.17296" lon="1.69927">
        <ele>134</ele>
        <time>2017-01-06T09:35:54Z</time>
      </trkpt>
      <trkpt lat="49.17282" lon="1.69928">
        <ele>140</ele>
        <time>2017-01-06T09:36:01Z</time>
      </trkpt>
      <trkpt lat="49.17278" lon="1.69932">
        <ele>139</ele>
        <time>2017-01-06T09:36:03Z</time>
      </trkpt>
      <trkpt lat="49.17274" lon="1.69931">
        <ele>137</ele>
        <time>2017-01-06T09:36:05Z</time>
      </trkpt>
      <trkpt lat="49.17271" lon="1.6993">
        <ele>137</ele>
        <time>2017-01-06T09:36:07Z</time>
      </trkpt>
      <trkpt lat="49.17247" lon="1.69927">
        <ele>135</ele>
        <time>2017-01-06T09:36:21Z</time>
      </trkpt>
      <trkpt lat="49.17245" lon="1.69928">
        <ele>136</ele>
        <time>2017-01-06T09:36:24Z</time>
      </trkpt>
      <trkpt lat="49.17239" lon="1.69925">
        <ele>136</ele>
        <time>2017-01-06T09:36:31Z</time>
      </trkpt>
      <trkpt lat="49.17229" lon="1.69933">
        <ele>138</ele>
        <time>2017-01-06T09:36:39Z</time>
      </trkpt>
      <trkpt lat="49.17222" lon="1.69934">
        <ele>138</ele>
        <time>2017-01-06T09:36:45Z</time>
      </trkpt>
      <trkpt lat="49.1722" lon="1.69937">
        <ele>137</ele>
        <time>2017-01-06T09:36:47Z</time>
      </trkpt>
      <trkpt lat="49.17211" lon="1.69933">
        <ele>135</ele>
        <time>2017-01-06T09:36:54Z</time>
      </trkpt>
      <trkpt lat="49.17208" lon="1.69935">
        <ele>135</ele>
        <time>2017-01-06T09:36:56Z</time>
      </trkpt>
      <trkpt lat="49.172" lon="1.69937">
        <ele>135</ele>
        <time>2017-01-06T09:37:01Z</time>
      </trkpt>
      <trkpt lat="49.17195" lon="1.69942">
        <ele>136</ele>
        <time>2017-01-06T09:37:04Z</time>
      </trkpt>
      <trkpt lat="49.17187" lon="1.69942">
        <ele>134</ele>
        <time>2017-01-06T09:37:09Z</time>
      </trkpt>
      <trkpt lat="49.17182" lon="1.69939">
        <ele>133</ele>
        <time>2017-01-06T09:37:12Z</time>
      </trkpt>
      <trkpt lat="49.17178" lon="1.69941">
        <ele>133</ele>
        <time>2017-01-06T09:37:14Z</time>
      </trkpt>
      <trkpt lat="49.17173" lon="1.69943">
        <ele>133</ele>
        <time>2017-01-06T09:37:17Z</time>
      </trkpt>
      <trkpt lat="49.17169" lon="1.69941">
        <ele>133</ele>
        <time>2017-01-06T09:37:20Z</time>
      </trkpt>
      <trkpt lat="49.17159" lon="1.69939">
        <ele>133</ele>
        <time>2017-01-06T09:37:26Z</time>
      </trkpt>
      <trkpt lat="49.17151" lon="1.69945">
        <ele>135</ele>
        <time>2017-01-06T09:37:30Z</time>
      </trkpt>
      <trkpt lat="49.17146" lon="1.69942">
        <ele>137</ele>
        <time>2017-01-06T09:37:32Z</time>
      </trkpt>
      <trkpt lat="49.17144" lon="1.69947">
        <ele>138</ele>
        <time>2017-01-06T09:37:34Z</time>
      </trkpt>
      <trkpt lat="49.17141" lon="1.69944">
        <ele>138</ele>
        <time>2017-01-06T09:37:36Z</time>
      </trkpt>
      <trkpt lat="49.17138" lon="1.69945">
        <ele>139</ele>
        <time>2017-01-06T09:37:38Z</time>
      </trkpt>
      <trkpt lat="49.17136" lon="1.6994">
        <ele>138</ele>
        <time>2017-01-06T09:37:40Z</time>
      </trkpt>
      <trkpt lat="49.17129" lon="1.6994">
        <ele>136</ele>
        <time>2017-01-06T09:37:45Z</time>
      </trkpt>
      <trkpt lat="49.17126" lon="1.69943">
        <ele>135</ele>
        <time>2017-01-06T09:37:48Z</time>
      </trkpt>
      <trkpt lat="49.17124" lon="1.69939">
        <ele>133</ele>
        <time>2017-01-06T09:37:52Z</time>
      </trkpt>
      <trkpt lat="49.1712" lon="1.69939">
        <ele>131</ele>
        <time>2017-01-06T09:37:55Z</time>
      </trkpt>
      <trkpt lat="49.17117" lon="1.69941">
        <ele>131</ele>
        <time>2017-01-06T09:37:57Z</time>
      </trkpt>
      <trkpt lat="49.17105" lon="1.69938">
        <ele>136</ele>
        <time>2017-01-06T09:38:04Z</time>
      </trkpt>
      <trkpt lat="49.17095" lon="1.69937">
        <ele>141</ele>
        <time>2017-01-06T09:38:09Z</time>
      </trkpt>
      <trkpt lat="49.17092" lon="1.69937">
        <ele>142</ele>
        <time>2017-01-06T09:38:11Z</time>
      </trkpt>
      <trkpt lat="49.17089" lon="1.6994">
        <ele>142</ele>
        <time>2017-01-06T09:38:14Z</time>
      </trkpt>
      <trkpt lat="49.17082" lon="1.69942">
        <ele>142</ele>
        <time>2017-01-06T09:38:18Z</time>
      </trkpt>
      <trkpt lat="49.17075" lon="1.69939">
        <ele>141</ele>
        <time>2017-01-06T09:38:22Z</time>
      </trkpt>
      <trkpt lat="49.17072" lon="1.6994">
        <ele>140</ele>
        <time>2017-01-06T09:38:25Z</time>
      </trkpt>
      <trkpt lat="49.1707" lon="1.69938">
        <ele>141</ele>
        <time>2017-01-06T09:38:29Z</time>
      </trkpt>
      <trkpt lat="49.17064" lon="1.6994">
        <ele>140</ele>
        <time>2017-01-06T09:38:34Z</time>
      </trkpt>
      <trkpt lat="49.1706" lon="1.6994">
        <ele>138</ele>
        <time>2017-01-06T09:38:38Z</time>
      </trkpt>
      <trkpt lat="49.17057" lon="1.69942">
        <ele>138</ele>
        <time>2017-01-06T09:38:41Z</time>
      </trkpt>
      <trkpt lat="49.17044" lon="1.6994">
        <ele>135</ele>
        <time>2017-01-06T09:38:56Z</time>
      </trkpt>
      <trkpt lat="49.17038" lon="1.69943">
        <ele>134</ele>
        <time>2017-01-06T09:39:02Z</time>
      </trkpt>
      <trkpt lat="49.17035" lon="1.69941">
        <ele>134</ele>
        <time>2017-01-06T09:39:04Z</time>
      </trkpt>
      <trkpt lat="49.17032" lon="1.6994">
        <ele>135</ele>
        <time>2017-01-06T09:39:06Z</time>
      </trkpt>
      <trkpt lat="49.17022" lon="1.69941">
        <ele>132</ele>
        <time>2017-01-06T09:39:15Z</time>
      </trkpt>
      <trkpt lat="49.17017" lon="1.69939">
        <ele>132</ele>
        <time>2017-01-06T09:39:19Z</time>
      </trkpt>
      <trkpt lat="49.16976" lon="1.69945">
        <ele>130</ele>
        <time>2017-01-06T09:39:50Z</time>
      </trkpt>
      <trkpt lat="49.16971" lon="1.69951">
        <ele>132</ele>
        <time>2017-01-06T09:39:56Z</time>
      </trkpt>
      <trkpt lat="49.16968" lon="1.6995">
        <ele>133</ele>
        <time>2017-01-06T09:40:00Z</time>
      </trkpt>
      <trkpt lat="49.16965" lon="1.69952">
        <ele>135</ele>
        <time>2017-01-06T09:40:05Z</time>
      </trkpt>
      <trkpt lat="49.16962" lon="1.69951">
        <ele>137</ele>
        <time>2017-01-06T09:40:08Z</time>
      </trkpt>
      <trkpt lat="49.16959" lon="1.69951">
        <ele>139</ele>
        <time>2017-01-06T09:40:12Z</time>
      </trkpt>
      <trkpt lat="49.16956" lon="1.69953">
        <ele>142</ele>
        <time>2017-01-06T09:40:14Z</time>
      </trkpt>
      <trkpt lat="49.16952" lon="1.69954">
        <ele>142</ele>
        <time>2017-01-06T09:40:17Z</time>
      </trkpt>
      <trkpt lat="49.16949" lon="1.69952">
        <ele>142</ele>
        <time>2017-01-06T09:40:20Z</time>
      </trkpt>
      <trkpt lat="49.16937" lon="1.6995">
        <ele>143</ele>
        <time>2017-01-06T09:40:26Z</time>
      </trkpt>
      <trkpt lat="49.16934" lon="1.69947">
        <ele>144</ele>
        <time>2017-01-06T09:40:28Z</time>
      </trkpt>
      <trkpt lat="49.16927" lon="1.69949">
        <ele>143</ele>
        <time>2017-01-06T09:40:34Z</time>
      </trkpt>
      <trkpt lat="49.16923" lon="1.69949">
        <ele>144</ele>
        <time>2017-01-06T09:40:36Z</time>
      </trkpt>
      <trkpt lat="49.16918" lon="1.69957">
        <ele>146</ele>
        <time>2017-01-06T09:40:45Z</time>
      </trkpt>
      <trkpt lat="49.16899" lon="1.69956">
        <ele>143</ele>
        <time>2017-01-06T09:40:56Z</time>
      </trkpt>
      <trkpt lat="49.16895" lon="1.69958">
        <ele>142</ele>
        <time>2017-01-06T09:40:59Z</time>
      </trkpt>
      <trkpt lat="49.16892" lon="1.69955">
        <ele>142</ele>
        <time>2017-01-06T09:41:01Z</time>
      </trkpt>
      <trkpt lat="49.16887" lon="1.69955">
        <ele>145</ele>
        <time>2017-01-06T09:41:04Z</time>
      </trkpt>
      <trkpt lat="49.16881" lon="1.69961">
        <ele>148</ele>
        <time>2017-01-06T09:41:11Z</time>
      </trkpt>
      <trkpt lat="49.1688" lon="1.69966">
        <ele>148</ele>
        <time>2017-01-06T09:41:14Z</time>
      </trkpt>
      <trkpt lat="49.16877" lon="1.69967">
        <ele>149</ele>
        <time>2017-01-06T09:41:17Z</time>
      </trkpt>
      <trkpt lat="49.16873" lon="1.69966">
        <ele>149</ele>
        <time>2017-01-06T09:41:22Z</time>
      </trkpt>
      <trkpt lat="49.16866" lon="1.6996">
        <ele>151</ele>
        <time>2017-01-06T09:41:29Z</time>
      </trkpt>
      <trkpt lat="49.16853" lon="1.69961">
        <ele>152</ele>
        <time>2017-01-06T09:41:37Z</time>
      </trkpt>
      <trkpt lat="49.1685" lon="1.69958">
        <ele>150</ele>
        <time>2017-01-06T09:41:39Z</time>
      </trkpt>
      <trkpt lat="49.16844" lon="1.6996">
        <ele>149</ele>
        <time>2017-01-06T09:41:44Z</time>
      </trkpt>
      <trkpt lat="49.16835" lon="1.69971">
        <ele>150</ele>
        <time>2017-01-06T09:41:50Z</time>
      </trkpt>
      <trkpt lat="49.16831" lon="1.69975">
        <ele>151</ele>
        <time>2017-01-06T09:41:53Z</time>
      </trkpt>
      <trkpt lat="49.16819" lon="1.69971">
        <ele>151</ele>
        <time>2017-01-06T09:42:00Z</time>
      </trkpt>
      <trkpt lat="49.16806" lon="1.69966">
        <ele>150</ele>
        <time>2017-01-06T09:42:08Z</time>
      </trkpt>
      <trkpt lat="49.16799" lon="1.69959">
        <ele>149</ele>
        <time>2017-01-06T09:42:15Z</time>
      </trkpt>
      <trkpt lat="49.16793" lon="1.69957">
        <ele>151</ele>
        <time>2017-01-06T09:42:20Z</time>
      </trkpt>
      <trkpt lat="49.16789" lon="1.69963">
        <ele>152</ele>
        <time>2017-01-06T09:42:25Z</time>
      </trkpt>
      <trkpt lat="49.16786" lon="1.69959">
        <ele>149</ele>
        <time>2017-01-06T09:42:30Z</time>
      </trkpt>
      <trkpt lat="49.16781" lon="1.69959">
        <ele>149</ele>
        <time>2017-01-06T09:42:34Z</time>
      </trkpt>
      <trkpt lat="49.16779" lon="1.69966">
        <ele>145</ele>
        <time>2017-01-06T09:42:36Z</time>
      </trkpt>
      <trkpt lat="49.16771" lon="1.6997">
        <ele>143</ele>
        <time>2017-01-06T09:42:41Z</time>
      </trkpt>
      <trkpt lat="49.16767" lon="1.69969">
        <ele>142</ele>
        <time>2017-01-06T09:42:43Z</time>
      </trkpt>
      <trkpt lat="49.16765" lon="1.69974">
        <ele>144</ele>
        <time>2017-01-06T09:42:48Z</time>
      </trkpt>
      <trkpt lat="49.16754" lon="1.69974">
        <ele>146</ele>
        <time>2017-01-06T09:42:53Z</time>
      </trkpt>
      <trkpt lat="49.16747" lon="1.69979">
        <ele>147</ele>
        <time>2017-01-06T09:42:58Z</time>
      </trkpt>
      <trkpt lat="49.16739" lon="1.69979">
        <ele>148</ele>
        <time>2017-01-06T09:43:02Z</time>
      </trkpt>
      <trkpt lat="49.16732" lon="1.69972">
        <ele>147</ele>
        <time>2017-01-06T09:43:10Z</time>
      </trkpt>
      <trkpt lat="49.16723" lon="1.69973">
        <ele>146</ele>
        <time>2017-01-06T09:43:16Z</time>
      </trkpt>
      <trkpt lat="49.16721" lon="1.69971">
        <ele>146</ele>
        <time>2017-01-06T09:43:20Z</time>
      </trkpt>
      <trkpt lat="49.16718" lon="1.69973">
        <ele>147</ele>
        <time>2017-01-06T09:43:22Z</time>
      </trkpt>
      <trkpt lat="49.16716" lon="1.69973">
        <ele>148</ele>
        <time>2017-01-06T09:43:26Z</time>
      </trkpt>
      <trkpt lat="49.16712" lon="1.69969">
        <ele>148</ele>
        <time>2017-01-06T09:43:30Z</time>
      </trkpt>
      <trkpt lat="49.16703" lon="1.69974">
        <ele>150</ele>
        <time>2017-01-06T09:43:34Z</time>
      </trkpt>
      <trkpt lat="49.167" lon="1.69978">
        <ele>152</ele>
        <time>2017-01-06T09:43:45Z</time>
      </trkpt>
      <trkpt lat="49.16697" lon="1.69978">
        <ele>152</ele>
        <time>2017-01-06T09:43:48Z</time>
      </trkpt>
      <trkpt lat="49.16695" lon="1.69974">
        <ele>151</ele>
        <time>2017-01-06T09:43:56Z</time>
      </trkpt>
      <trkpt lat="49.16692" lon="1.69973">
        <ele>149</ele>
        <time>2017-01-06T09:44:10Z</time>
      </trkpt>
      <trkpt lat="49.16689" lon="1.69974">
        <ele>150</ele>
        <time>2017-01-06T09:44:13Z</time>
      </trkpt>
      <trkpt lat="49.16688" lon="1.69979">
        <ele>151</ele>
        <time>2017-01-06T09:44:15Z</time>
      </trkpt>
      <trkpt lat="49.16684" lon="1.69979">
        <ele>151</ele>
        <time>2017-01-06T09:44:17Z</time>
      </trkpt>
      <trkpt lat="49.16681" lon="1.69977">
        <ele>152</ele>
        <time>2017-01-06T09:44:19Z</time>
      </trkpt>
      <trkpt lat="49.16673" lon="1.6998">
        <ele>155</ele>
        <time>2017-01-06T09:44:27Z</time>
      </trkpt>
      <trkpt lat="49.16671" lon="1.69984">
        <ele>155</ele>
        <time>2017-01-06T09:44:32Z</time>
      </trkpt>
      <trkpt lat="49.16667" lon="1.69983">
        <ele>155</ele>
        <time>2017-01-06T09:44:34Z</time>
      </trkpt>
      <trkpt lat="49.16664" lon="1.69981">
        <ele>155</ele>
        <time>2017-01-06T09:44:37Z</time>
      </trkpt>
      <trkpt lat="49.16653" lon="1.69973">
        <ele>153</ele>
        <time>2017-01-06T09:44:46Z</time>
      </trkpt>
      <trkpt lat="49.1665" lon="1.69982">
        <ele>153</ele>
        <time>2017-01-06T09:44:49Z</time>
      </trkpt>
      <trkpt lat="49.16646" lon="1.69983">
        <ele>152</ele>
        <time>2017-01-06T09:44:53Z</time>
      </trkpt>
      <trkpt lat="49.16643" lon="1.69984">
        <ele>151</ele>
        <time>2017-01-06T09:44:56Z</time>
      </trkpt>
      <trkpt lat="49.1664" lon="1.6998">
        <ele>149</ele>
        <time>2017-01-06T09:44:59Z</time>
      </trkpt>
      <trkpt lat="49.16637" lon="1.69982">
        <ele>147</ele>
        <time>2017-01-06T09:45:02Z</time>
      </trkpt>
      <trkpt lat="49.16631" lon="1.69978">
        <ele>145</ele>
        <time>2017-01-06T09:45:11Z</time>
      </trkpt>
      <trkpt lat="49.1663" lon="1.69985">
        <ele>145</ele>
        <time>2017-01-06T09:45:13Z</time>
      </trkpt>
      <trkpt lat="49.16625" lon="1.69985">
        <ele>147</ele>
        <time>2017-01-06T09:45:16Z</time>
      </trkpt>
      <trkpt lat="49.16625" lon="1.6998">
        <ele>147</ele>
        <time>2017-01-06T09:45:17Z</time>
      </trkpt>
      <trkpt lat="49.16624" lon="1.69975">
        <ele>145</ele>
        <time>2017-01-06T09:45:18Z</time>
      </trkpt>
      <trkpt lat="49.16614" lon="1.69971">
        <ele>142</ele>
        <time>2017-01-06T09:45:22Z</time>
      </trkpt>
      <trkpt lat="49.16611" lon="1.69972">
        <ele>139</ele>
        <time>2017-01-06T09:45:24Z</time>
      </trkpt>
      <trkpt lat="49.1661" lon="1.69968">
        <ele>139</ele>
        <time>2017-01-06T09:45:25Z</time>
      </trkpt>
      <trkpt lat="49.16608" lon="1.69971">
        <ele>138</ele>
        <time>2017-01-06T09:45:30Z</time>
      </trkpt>
      <trkpt lat="49.16605" lon="1.6997">
        <ele>136</ele>
        <time>2017-01-06T09:45:36Z</time>
      </trkpt>
      <trkpt lat="49.16601" lon="1.69971">
        <ele>136</ele>
        <time>2017-01-06T09:45:39Z</time>
      </trkpt>
      <trkpt lat="49.16598" lon="1.69971">
        <ele>138</ele>
        <time>2017-01-06T09:45:42Z</time>
      </trkpt>
      <trkpt lat="49.16592" lon="1.69967">
        <ele>139</ele>
        <time>2017-01-06T09:45:48Z</time>
      </trkpt>
      <trkpt lat="49.16586" lon="1.69969">
        <ele>138</ele>
        <time>2017-01-06T09:45:54Z</time>
      </trkpt>
      <trkpt lat="49.16557" lon="1.69963">
        <ele>136</ele>
        <time>2017-01-06T09:46:19Z</time>
      </trkpt>
      <trkpt lat="49.16553" lon="1.69966">
        <ele>138</ele>
        <time>2017-01-06T09:46:25Z</time>
      </trkpt>
      <trkpt lat="49.16549" lon="1.69962">
        <ele>138</ele>
        <time>2017-01-06T09:46:27Z</time>
      </trkpt>
      <trkpt lat="49.16545" lon="1.69962">
        <ele>138</ele>
        <time>2017-01-06T09:46:30Z</time>
      </trkpt>
      <trkpt lat="49.16539" lon="1.69968">
        <ele>142</ele>
        <time>2017-01-06T09:46:34Z</time>
      </trkpt>
      <trkpt lat="49.16532" lon="1.6997">
        <ele>145</ele>
        <time>2017-01-06T09:46:42Z</time>
      </trkpt>
      <trkpt lat="49.16519" lon="1.69965">
        <ele>140</ele>
        <time>2017-01-06T09:46:51Z</time>
      </trkpt>
      <trkpt lat="49.16475" lon="1.69961">
        <ele>144</ele>
        <time>2017-01-06T09:47:22Z</time>
      </trkpt>
      <trkpt lat="49.16451" lon="1.69958">
        <ele>143</ele>
        <time>2017-01-06T09:47:41Z</time>
      </trkpt>
      <trkpt lat="49.16447" lon="1.69961">
        <ele>142</ele>
        <time>2017-01-06T09:47:43Z</time>
      </trkpt>
      <trkpt lat="49.16442" lon="1.69961">
        <ele>140</ele>
        <time>2017-01-06T09:47:46Z</time>
      </trkpt>
      <trkpt lat="49.16438" lon="1.69965">
        <ele>139</ele>
        <time>2017-01-06T09:47:50Z</time>
      </trkpt>
      <trkpt lat="49.16433" lon="1.69967">
        <ele>139</ele>
        <time>2017-01-06T09:47:53Z</time>
      </trkpt>
      <trkpt lat="49.16428" lon="1.69966">
        <ele>140</ele>
        <time>2017-01-06T09:47:56Z</time>
      </trkpt>
      <trkpt lat="49.16421" lon="1.69956">
        <ele>143</ele>
        <time>2017-01-06T09:48:02Z</time>
      </trkpt>
      <trkpt lat="49.16418" lon="1.69955">
        <ele>145</ele>
        <time>2017-01-06T09:48:05Z</time>
      </trkpt>
      <trkpt lat="49.16415" lon="1.69957">
        <ele>146</ele>
        <time>2017-01-06T09:48:06Z</time>
      </trkpt>
      <trkpt lat="49.16408" lon="1.69957">
        <ele>146</ele>
        <time>2017-01-06T09:48:11Z</time>
      </trkpt>
      <trkpt lat="49.16397" lon="1.69961">
        <ele>152</ele>
        <time>2017-01-06T09:48:18Z</time>
      </trkpt>
      <trkpt lat="49.16394" lon="1.69959">
        <ele>153</ele>
        <time>2017-01-06T09:48:20Z</time>
      </trkpt>
      <trkpt lat="49.16387" lon="1.69959">
        <ele>153</ele>
        <time>2017-01-06T09:48:24Z</time>
      </trkpt>
      <trkpt lat="49.16383" lon="1.69963">
        <ele>154</ele>
        <time>2017-01-06T09:48:27Z</time>
      </trkpt>
      <trkpt lat="49.1638" lon="1.69971">
        <ele>155</ele>
        <time>2017-01-06T09:48:32Z</time>
      </trkpt>
      <trkpt lat="49.16372" lon="1.69971">
        <ele>156</ele>
        <time>2017-01-06T09:48:39Z</time>
      </trkpt>
      <trkpt lat="49.16366" lon="1.6996">
        <ele>158</ele>
        <time>2017-01-06T09:48:43Z</time>
      </trkpt>
      <trkpt lat="49.16355" lon="1.69956">
        <ele>159</ele>
        <time>2017-01-06T09:48:50Z</time>
      </trkpt>
      <trkpt lat="49.16352" lon="1.6996">
        <ele>159</ele>
        <time>2017-01-06T09:48:53Z</time>
      </trkpt>
      <trkpt lat="49.16346" lon="1.69963">
        <ele>158</ele>
        <time>2017-01-06T09:48:57Z</time>
      </trkpt>
      <trkpt lat="49.16343" lon="1.69957">
        <ele>158</ele>
        <time>2017-01-06T09:48:59Z</time>
      </trkpt>
      <trkpt lat="49.16333" lon="1.69954">
        <ele>157</ele>
        <time>2017-01-06T09:49:06Z</time>
      </trkpt>
      <trkpt lat="49.16323" lon="1.69956">
        <ele>156</ele>
        <time>2017-01-06T09:49:13Z</time>
      </trkpt>
      <trkpt lat="49.1632" lon="1.69953">
        <ele>157</ele>
        <time>2017-01-06T09:49:15Z</time>
      </trkpt>
      <trkpt lat="49.16303" lon="1.6995">
        <ele>156</ele>
        <time>2017-01-06T09:49:28Z</time>
      </trkpt>
      <trkpt lat="49.163" lon="1.69944">
        <ele>157</ele>
        <time>2017-01-06T09:49:31Z</time>
      </trkpt>
      <trkpt lat="49.16294" lon="1.69943">
        <ele>160</ele>
        <time>2017-01-06T09:49:37Z</time>
      </trkpt>
      <trkpt lat="49.1629" lon="1.69945">
        <ele>158</ele>
        <time>2017-01-06T09:49:41Z</time>
      </trkpt>
      <trkpt lat="49.16287" lon="1.69941">
        <ele>158</ele>
        <time>2017-01-06T09:49:43Z</time>
      </trkpt>
      <trkpt lat="49.16283" lon="1.69941">
        <ele>158</ele>
        <time>2017-01-06T09:49:46Z</time>
      </trkpt>
      <trkpt lat="49.16279" lon="1.69945">
        <ele>156</ele>
        <time>2017-01-06T09:49:49Z</time>
      </trkpt>
      <trkpt lat="49.16273" lon="1.69945">
        <ele>155</ele>
        <time>2017-01-06T09:49:56Z</time>
      </trkpt>
      <trkpt lat="49.16267" lon="1.69938">
        <ele>152</ele>
        <time>2017-01-06T09:50:01Z</time>
      </trkpt>
      <trkpt lat="49.1626" lon="1.69943">
        <ele>152</ele>
        <time>2017-01-06T09:50:07Z</time>
      </trkpt>
      <trkpt lat="49.16253" lon="1.69943">
        <ele>149</ele>
        <time>2017-01-06T09:50:11Z</time>
      </trkpt>
      <trkpt lat="49.16229" lon="1.69936">
        <ele>148</ele>
        <time>2017-01-06T09:50:22Z</time>
      </trkpt>
      <trkpt lat="49.16235" lon="1.69953">
        <ele>146</ele>
        <time>2017-01-06T09:50:29Z</time>
      </trkpt>
      <trkpt lat="49.16227" lon="1.69953">
        <ele>147</ele>
        <time>2017-01-06T09:50:31Z</time>
      </trkpt>
      <trkpt lat="49.16221" lon="1.69946">
        <ele>147</ele>
        <time>2017-01-06T09:50:33Z</time>
      </trkpt>
      <trkpt lat="49.16215" lon="1.69948">
        <ele>146</ele>
        <time>2017-01-06T09:50:37Z</time>
      </trkpt>
      <trkpt lat="49.162" lon="1.69944">
        <ele>145</ele>
        <time>2017-01-06T09:50:48Z</time>
      </trkpt>
      <trkpt lat="49.16194" lon="1.6994">
        <ele>147</ele>
        <time>2017-01-06T09:50:53Z</time>
      </trkpt>
      <trkpt lat="49.16189" lon="1.69939">
        <ele>151</ele>
        <time>2017-01-06T09:50:56Z</time>
      </trkpt>
      <trkpt lat="49.16186" lon="1.69933">
        <ele>152</ele>
        <time>2017-01-06T09:50:57Z</time>
      </trkpt>
      <trkpt lat="49.16181" lon="1.69933">
        <ele>143</ele>
        <time>2017-01-06T09:51:04Z</time>
      </trkpt>
      <trkpt lat="49.16174" lon="1.6993">
        <ele>133</ele>
        <time>2017-01-06T09:51:12Z</time>
      </trkpt>
      <trkpt lat="49.1617" lon="1.6993">
        <ele>132</ele>
        <time>2017-01-06T09:51:15Z</time>
      </trkpt>
      <trkpt lat="49.16167" lon="1.69929">
        <ele>131</ele>
        <time>2017-01-06T09:51:18Z</time>
      </trkpt>
      <trkpt lat="49.16164" lon="1.6993">
        <ele>129</ele>
        <time>2017-01-06T09:51:22Z</time>
      </trkpt>
      <trkpt lat="49.16161" lon="1.69929">
        <ele>128</ele>
        <time>2017-01-06T09:51:24Z</time>
      </trkpt>
      <trkpt lat="49.16158" lon="1.69929">
        <ele>128</ele>
        <time>2017-01-06T09:51:29Z</time>
      </trkpt>
      <trkpt lat="49.16153" lon="1.69929">
        <ele>128</ele>
        <time>2017-01-06T09:51:34Z</time>
      </trkpt>
      <trkpt lat="49.16139" lon="1.69935">
        <ele>128</ele>
        <time>2017-01-06T09:51:54Z</time>
      </trkpt>
      <trkpt lat="49.16134" lon="1.69939">
        <ele>126</ele>
        <time>2017-01-06T09:52:00Z</time>
      </trkpt>
      <trkpt lat="49.16131" lon="1.69941">
        <ele>126</ele>
        <time>2017-01-06T09:52:03Z</time>
      </trkpt>
      <trkpt lat="49.16127" lon="1.69939">
        <ele>125</ele>
        <time>2017-01-06T09:52:18Z</time>
      </trkpt>
      <trkpt lat="49.16124" lon="1.69943">
        <ele>123</ele>
        <time>2017-01-06T09:52:21Z</time>
      </trkpt>
      <trkpt lat="49.16119" lon="1.69948">
        <ele>122</ele>
        <time>2017-01-06T09:53:16Z</time>
      </trkpt>
      <trkpt lat="49.16115" lon="1.69949">
        <ele>122</ele>
        <time>2017-01-06T09:53:19Z</time>
      </trkpt>
      <trkpt lat="49.16111" lon="1.6995">
        <ele>124</ele>
        <time>2017-01-06T09:53:22Z</time>
      </trkpt>
      <trkpt lat="49.16107" lon="1.69954">
        <ele>124</ele>
        <time>2017-01-06T09:53:25Z</time>
      </trkpt>
      <trkpt lat="49.16099" lon="1.6995">
        <ele>123</ele>
        <time>2017-01-06T09:53:29Z</time>
      </trkpt>
      <trkpt lat="49.16094" lon="1.69958">
        <ele>124</ele>
        <time>2017-01-06T09:53:33Z</time>
      </trkpt>
      <trkpt lat="49.16087" lon="1.69971">
        <ele>123</ele>
        <time>2017-01-06T09:53:38Z</time>
      </trkpt>
      <trkpt lat="49.16073" lon="1.69975">
        <ele>127</ele>
        <time>2017-01-06T09:53:49Z</time>
      </trkpt>
      <trkpt lat="49.16066" lon="1.69984">
        <ele>127</ele>
        <time>2017-01-06T09:53:55Z</time>
      </trkpt>
      <trkpt lat="49.16062" lon="1.6998">
        <ele>128</ele>
        <time>2017-01-06T09:53:57Z</time>
      </trkpt>
      <trkpt lat="49.16049" lon="1.6998">
        <ele>130</ele>
        <time>2017-01-06T09:54:03Z</time>
      </trkpt>
      <trkpt lat="49.16049" lon="1.69986">
        <ele>131</ele>
        <time>2017-01-06T09:54:08Z</time>
      </trkpt>
      <trkpt lat="49.16045" lon="1.69997">
        <ele>127</ele>
        <time>2017-01-06T09:54:14Z</time>
      </trkpt>
      <trkpt lat="49.16041" lon="1.69997">
        <ele>127</ele>
        <time>2017-01-06T09:54:16Z</time>
      </trkpt>
      <trkpt lat="49.16037" lon="1.69999">
        <ele>128</ele>
        <time>2017-01-06T09:54:18Z</time>
      </trkpt>
      <trkpt lat="49.16033" lon="1.69996">
        <ele>127</ele>
        <time>2017-01-06T09:54:20Z</time>
      </trkpt>
      <trkpt lat="49.16029" lon="1.69997">
        <ele>129</ele>
        <time>2017-01-06T09:54:25Z</time>
      </trkpt>
      <trkpt lat="49.16022" lon="1.70003">
        <ele>130</ele>
        <time>2017-01-06T09:54:33Z</time>
      </trkpt>
      <trkpt lat="49.16019" lon="1.70002">
        <ele>129</ele>
        <time>2017-01-06T09:54:35Z</time>
      </trkpt>
      <trkpt lat="49.16" lon="1.7001">
        <ele>127</ele>
        <time>2017-01-06T09:54:45Z</time>
      </trkpt>
      <trkpt lat="49.15997" lon="1.70016">
        <ele>124</ele>
        <time>2017-01-06T09:54:46Z</time>
      </trkpt>
      <trkpt lat="49.15994" lon="1.70012">
        <ele>124</ele>
        <time>2017-01-06T09:54:48Z</time>
      </trkpt>
      <trkpt lat="49.15982" lon="1.70019">
        <ele>128</ele>
        <time>2017-01-06T09:54:57Z</time>
      </trkpt>
      <trkpt lat="49.15981" lon="1.70024">
        <ele>131</ele>
        <time>2017-01-06T09:55:01Z</time>
      </trkpt>
      <trkpt lat="49.15977" lon="1.70028">
        <ele>131</ele>
        <time>2017-01-06T09:55:05Z</time>
      </trkpt>
      <trkpt lat="49.1597" lon="1.70028">
        <ele>131</ele>
        <time>2017-01-06T09:55:12Z</time>
      </trkpt>
      <trkpt lat="49.1597" lon="1.70035">
        <ele>131</ele>
        <time>2017-01-06T09:55:13Z</time>
      </trkpt>
      <trkpt lat="49.15968" lon="1.70038">
        <ele>130</ele>
        <time>2017-01-06T09:55:14Z</time>
      </trkpt>
      <trkpt lat="49.15956" lon="1.70047">
        <ele>127</ele>
        <time>2017-01-06T09:55:23Z</time>
      </trkpt>
      <trkpt lat="49.15948" lon="1.70046">
        <ele>126</ele>
        <time>2017-01-06T09:55:27Z</time>
      </trkpt>
      <trkpt lat="49.15941" lon="1.70051">
        <ele>126</ele>
        <time>2017-01-06T09:55:31Z</time>
      </trkpt>
      <trkpt lat="49.1594" lon="1.70058">
        <ele>129</ele>
        <time>2017-01-06T09:55:35Z</time>
      </trkpt>
      <trkpt lat="49.15927" lon="1.70061">
        <ele>131</ele>
        <time>2017-01-06T09:55:44Z</time>
      </trkpt>
      <trkpt lat="49.15925" lon="1.70069">
        <ele>129</ele>
        <time>2017-01-06T09:55:49Z</time>
      </trkpt>
      <trkpt lat="49.15915" lon="1.70072">
        <ele>126</ele>
        <time>2017-01-06T09:55:57Z</time>
      </trkpt>
      <trkpt lat="49.15913" lon="1.70077">
        <ele>126</ele>
        <time>2017-01-06T09:56:00Z</time>
      </trkpt>
      <trkpt lat="49.1589" lon="1.70089">
        <ele>123</ele>
        <time>2017-01-06T09:56:14Z</time>
      </trkpt>
      <trkpt lat="49.1589" lon="1.70094">
        <ele>122</ele>
        <time>2017-01-06T09:56:15Z</time>
      </trkpt>
      <trkpt lat="49.15887" lon="1.70094">
        <ele>122</ele>
        <time>2017-01-06T09:56:18Z</time>
      </trkpt>
      <trkpt lat="49.15882" lon="1.70097">
        <ele>121</ele>
        <time>2017-01-06T09:56:20Z</time>
      </trkpt>
      <trkpt lat="49.15879" lon="1.70097">
        <ele>120</ele>
        <time>2017-01-06T09:56:23Z</time>
      </trkpt>
      <trkpt lat="49.15879" lon="1.70093">
        <ele>121</ele>
        <time>2017-01-06T09:56:30Z</time>
      </trkpt>
      <trkpt lat="49.15874" lon="1.70096">
        <ele>120</ele>
        <time>2017-01-06T09:56:34Z</time>
      </trkpt>
      <trkpt lat="49.1587" lon="1.70097">
        <ele>118</ele>
        <time>2017-01-06T09:56:38Z</time>
      </trkpt>
      <trkpt lat="49.1587" lon="1.70101">
        <ele>117</ele>
        <time>2017-01-06T09:57:07Z</time>
      </trkpt>
      <trkpt lat="49.15866" lon="1.70102">
        <ele>117</ele>
        <time>2017-01-06T09:57:09Z</time>
      </trkpt>
      <trkpt lat="49.15862" lon="1.70109">
        <ele>117</ele>
        <time>2017-01-06T09:57:15Z</time>
      </trkpt>
      <trkpt lat="49.1586" lon="1.70118">
        <ele>118</ele>
        <time>2017-01-06T09:57:23Z</time>
      </trkpt>
      <trkpt lat="49.15859" lon="1.70128">
        <ele>117</ele>
        <time>2017-01-06T09:57:28Z</time>
      </trkpt>
      <trkpt lat="49.15861" lon="1.70132">
        <ele>118</ele>
        <time>2017-01-06T09:57:30Z</time>
      </trkpt>
      <trkpt lat="49.1586" lon="1.70138">
        <ele>119</ele>
        <time>2017-01-06T09:57:32Z</time>
      </trkpt>
      <trkpt lat="49.15857" lon="1.70141">
        <ele>120</ele>
        <time>2017-01-06T09:57:35Z</time>
      </trkpt>
      <trkpt lat="49.15857" lon="1.70147">
        <ele>120</ele>
        <time>2017-01-06T09:57:37Z</time>
      </trkpt>
      <trkpt lat="49.15852" lon="1.70161">
        <ele>118</ele>
        <time>2017-01-06T09:57:43Z</time>
      </trkpt>
      <trkpt lat="49.15853" lon="1.70168">
        <ele>117</ele>
        <time>2017-01-06T09:57:45Z</time>
      </trkpt>
      <trkpt lat="49.15851" lon="1.70173">
        <ele>113</ele>
        <time>2017-01-06T09:57:50Z</time>
      </trkpt>
      <trkpt lat="49.15854" lon="1.70177">
        <ele>111</ele>
        <time>2017-01-06T09:57:54Z</time>
      </trkpt>
      <trkpt lat="49.15855" lon="1.70189">
        <ele>107</ele>
        <time>2017-01-06T09:57:59Z</time>
      </trkpt>
      <trkpt lat="49.15854" lon="1.70218">
        <ele>106</ele>
        <time>2017-01-06T09:58:13Z</time>
      </trkpt>
      <trkpt lat="49.15857" lon="1.70221">
        <ele>105</ele>
        <time>2017-01-06T09:58:16Z</time>
      </trkpt>
      <trkpt lat="49.15864" lon="1.70245">
        <ele>107</ele>
        <time>2017-01-06T09:58:32Z</time>
      </trkpt>
      <trkpt lat="49.15869" lon="1.70247">
        <ele>109</ele>
        <time>2017-01-06T09:58:36Z</time>
      </trkpt>
      <trkpt lat="49.15873" lon="1.70256">
        <ele>108</ele>
        <time>2017-01-06T09:58:42Z</time>
      </trkpt>
      <trkpt lat="49.15881" lon="1.70273">
        <ele>104</ele>
        <time>2017-01-06T09:58:50Z</time>
      </trkpt>
      <trkpt lat="49.15885" lon="1.70296">
        <ele>104</ele>
        <time>2017-01-06T09:59:01Z</time>
      </trkpt>
      <trkpt lat="49.1589" lon="1.70298">
        <ele>103</ele>
        <time>2017-01-06T09:59:03Z</time>
      </trkpt>
      <trkpt lat="49.15894" lon="1.70309">
        <ele>100</ele>
        <time>2017-01-06T09:59:11Z</time>
      </trkpt>
      <trkpt lat="49.15891" lon="1.70316">
        <ele>101</ele>
        <time>2017-01-06T09:59:15Z</time>
      </trkpt>
      <trkpt lat="49.15886" lon="1.70346">
        <ele>100</ele>
        <time>2017-01-06T09:59:30Z</time>
      </trkpt>
      <trkpt lat="49.15887" lon="1.70356">
        <ele>96</ele>
        <time>2017-01-06T09:59:36Z</time>
      </trkpt>
      <trkpt lat="49.15886" lon="1.70409">
        <ele>94</ele>
        <time>2017-01-06T10:00:03Z</time>
      </trkpt>
      <trkpt lat="49.15887" lon="1.70427">
        <ele>94</ele>
        <time>2017-01-06T10:00:13Z</time>
      </trkpt>
      <trkpt lat="49.15887" lon="1.70439">
        <ele>94</ele>
        <time>2017-01-06T10:00:19Z</time>
      </trkpt>
      <trkpt lat="49.15889" lon="1.70445">
        <ele>93</ele>
        <time>2017-01-06T10:00:22Z</time>
      </trkpt>
      <trkpt lat="49.15887" lon="1.70459">
        <ele>92</ele>
        <time>2017-01-06T10:00:31Z</time>
      </trkpt>
      <trkpt lat="49.15889" lon="1.70464">
        <ele>91</ele>
        <time>2017-01-06T10:00:35Z</time>
      </trkpt>
      <trkpt lat="49.15889" lon="1.70468">
        <ele>91</ele>
        <time>2017-01-06T10:00:38Z</time>
      </trkpt>
      <trkpt lat="49.15894" lon="1.70475">
        <ele>92</ele>
        <time>2017-01-06T10:00:45Z</time>
      </trkpt>
      <trkpt lat="49.15891" lon="1.7048">
        <ele>92</ele>
        <time>2017-01-06T10:00:46Z</time>
      </trkpt>
      <trkpt lat="49.15889" lon="1.70489">
        <ele>92</ele>
        <time>2017-01-06T10:00:51Z</time>
      </trkpt>
      <trkpt lat="49.15891" lon="1.70492">
        <ele>91</ele>
        <time>2017-01-06T10:00:53Z</time>
      </trkpt>
      <trkpt lat="49.15889" lon="1.70498">
        <ele>90</ele>
        <time>2017-01-06T10:00:58Z</time>
      </trkpt>
      <trkpt lat="49.15889" lon="1.70504">
        <ele>89</ele>
        <time>2017-01-06T10:01:01Z</time>
      </trkpt>
      <trkpt lat="49.15892" lon="1.70506">
        <ele>88</ele>
        <time>2017-01-06T10:01:02Z</time>
      </trkpt>
      <trkpt lat="49.15893" lon="1.70511">
        <ele>90</ele>
        <time>2017-01-06T10:01:10Z</time>
      </trkpt>
      <trkpt lat="49.15898" lon="1.70521">
        <ele>92</ele>
        <time>2017-01-06T10:01:16Z</time>
      </trkpt>
      <trkpt lat="49.15898" lon="1.70525">
        <ele>92</ele>
        <time>2017-01-06T10:01:17Z</time>
      </trkpt>
      <trkpt lat="49.159" lon="1.70529">
        <ele>90</ele>
        <time>2017-01-06T10:01:19Z</time>
      </trkpt>
      <trkpt lat="49.15904" lon="1.70529">
        <ele>90</ele>
        <time>2017-01-06T10:01:20Z</time>
      </trkpt>
      <trkpt lat="49.15902" lon="1.70534">
        <ele>92</ele>
        <time>2017-01-06T10:01:23Z</time>
      </trkpt>
      <trkpt lat="49.15903" lon="1.70539">
        <ele>93</ele>
        <time>2017-01-06T10:01:28Z</time>
      </trkpt>
      <trkpt lat="49.15903" lon="1.70543">
        <ele>93</ele>
        <time>2017-01-06T10:01:31Z</time>
      </trkpt>
      <trkpt lat="49.15909" lon="1.70547">
        <ele>92</ele>
        <time>2017-01-06T10:01:34Z</time>
      </trkpt>
      <trkpt lat="49.15912" lon="1.70548">
        <ele>91</ele>
        <time>2017-01-06T10:01:37Z</time>
      </trkpt>
      <trkpt lat="49.15928" lon="1.70572">
        <ele>85</ele>
        <time>2017-01-06T10:01:54Z</time>
      </trkpt>
      <trkpt lat="49.15931" lon="1.70574">
        <ele>86</ele>
        <time>2017-01-06T10:01:56Z</time>
      </trkpt>
      <trkpt lat="49.15934" lon="1.70573">
        <ele>86</ele>
        <time>2017-01-06T10:01:58Z</time>
      </trkpt>
      <trkpt lat="49.15936" lon="1.70584">
        <ele>87</ele>
        <time>2017-01-06T10:02:06Z</time>
      </trkpt>
      <trkpt lat="49.15938" lon="1.70589">
        <ele>88</ele>
        <time>2017-01-06T10:02:10Z</time>
      </trkpt>
      <trkpt lat="49.15941" lon="1.7059">
        <ele>88</ele>
        <time>2017-01-06T10:02:12Z</time>
      </trkpt>
      <trkpt lat="49.15947" lon="1.70593">
        <ele>88</ele>
        <time>2017-01-06T10:02:15Z</time>
      </trkpt>
      <trkpt lat="49.15961" lon="1.70606">
        <ele>90</ele>
        <time>2017-01-06T10:02:31Z</time>
      </trkpt>
      <trkpt lat="49.15998" lon="1.70638">
        <ele>87</ele>
        <time>2017-01-06T10:03:03Z</time>
      </trkpt>
      <trkpt lat="49.16" lon="1.70643">
        <ele>86</ele>
        <time>2017-01-06T10:03:06Z</time>
      </trkpt>
      <trkpt lat="49.16006" lon="1.70646">
        <ele>87</ele>
        <time>2017-01-06T10:03:12Z</time>
      </trkpt>
      <trkpt lat="49.16011" lon="1.7066">
        <ele>85</ele>
        <time>2017-01-06T10:03:23Z</time>
      </trkpt>
      <trkpt lat="49.16018" lon="1.7066">
        <ele>87</ele>
        <time>2017-01-06T10:03:27Z</time>
      </trkpt>
      <trkpt lat="49.16031" lon="1.70673">
        <ele>88</ele>
        <time>2017-01-06T10:03:36Z</time>
      </trkpt>
      <trkpt lat="49.16035" lon="1.70679">
        <ele>89</ele>
        <time>2017-01-06T10:03:39Z</time>
      </trkpt>
      <trkpt lat="49.16044" lon="1.70681">
        <ele>93</ele>
        <time>2017-01-06T10:03:44Z</time>
      </trkpt>
      <trkpt lat="49.16046" lon="1.70688">
        <ele>93</ele>
        <time>2017-01-06T10:03:47Z</time>
      </trkpt>
      <trkpt lat="49.16056" lon="1.70695">
        <ele>93</ele>
        <time>2017-01-06T10:03:57Z</time>
      </trkpt>
      <trkpt lat="49.16069" lon="1.70704">
        <ele>93</ele>
        <time>2017-01-06T10:04:05Z</time>
      </trkpt>
      <trkpt lat="49.16071" lon="1.7071">
        <ele>93</ele>
        <time>2017-01-06T10:04:08Z</time>
      </trkpt>
      <trkpt lat="49.16071" lon="1.70714">
        <ele>93</ele>
        <time>2017-01-06T10:04:10Z</time>
      </trkpt>
      <trkpt lat="49.16074" lon="1.70718">
        <ele>93</ele>
        <time>2017-01-06T10:04:12Z</time>
      </trkpt>
      <trkpt lat="49.16079" lon="1.70732">
        <ele>92</ele>
        <time>2017-01-06T10:04:19Z</time>
      </trkpt>
      <trkpt lat="49.16085" lon="1.70735">
        <ele>92</ele>
        <time>2017-01-06T10:04:24Z</time>
      </trkpt>
      <trkpt lat="49.16087" lon="1.70731">
        <ele>92</ele>
        <time>2017-01-06T10:04:25Z</time>
      </trkpt>
      <trkpt lat="49.16095" lon="1.70729">
        <ele>92</ele>
        <time>2017-01-06T10:04:26Z</time>
      </trkpt>
      <trkpt lat="49.16093" lon="1.70735">
        <ele>92</ele>
        <time>2017-01-06T10:04:28Z</time>
      </trkpt>
      <trkpt lat="49.16096" lon="1.70739">
        <ele>92</ele>
        <time>2017-01-06T10:04:30Z</time>
      </trkpt>
      <trkpt lat="49.161" lon="1.70736">
        <ele>92</ele>
        <time>2017-01-06T10:04:32Z</time>
      </trkpt>
      <trkpt lat="49.16101" lon="1.70743">
        <ele>85</ele>
        <time>2017-01-06T10:04:37Z</time>
      </trkpt>
      <trkpt lat="49.16104" lon="1.70746">
        <ele>85</ele>
        <time>2017-01-06T10:04:41Z</time>
      </trkpt>
      <trkpt lat="49.16112" lon="1.70747">
        <ele>84</ele>
        <time>2017-01-06T10:04:45Z</time>
      </trkpt>
      <trkpt lat="49.16114" lon="1.70788">
        <ele>88</ele>
        <time>2017-01-06T10:05:03Z</time>
      </trkpt>
      <trkpt lat="49.1612" lon="1.70789">
        <ele>88</ele>
        <time>2017-01-06T10:05:05Z</time>
      </trkpt>
      <trkpt lat="49.16124" lon="1.7081">
        <ele>88</ele>
        <time>2017-01-06T10:05:20Z</time>
      </trkpt>
      <trkpt lat="49.16132" lon="1.70823">
        <ele>89</ele>
        <time>2017-01-06T10:05:26Z</time>
      </trkpt>
      <trkpt lat="49.16134" lon="1.70829">
        <ele>90</ele>
        <time>2017-01-06T10:05:30Z</time>
      </trkpt>
      <trkpt lat="49.16139" lon="1.70832">
        <ele>89</ele>
        <time>2017-01-06T10:05:32Z</time>
      </trkpt>
      <trkpt lat="49.16141" lon="1.70852">
        <ele>92</ele>
        <time>2017-01-06T10:05:43Z</time>
      </trkpt>
      <trkpt lat="49.16138" lon="1.70857">
        <ele>92</ele>
        <time>2017-01-06T10:05:46Z</time>
      </trkpt>
      <trkpt lat="49.16141" lon="1.70863">
        <ele>94</ele>
        <time>2017-01-06T10:05:50Z</time>
      </trkpt>
      <trkpt lat="49.16145" lon="1.70867">
        <ele>94</ele>
        <time>2017-01-06T10:05:52Z</time>
      </trkpt>
      <trkpt lat="49.16145" lon="1.70877">
        <ele>95</ele>
        <time>2017-01-06T10:05:57Z</time>
      </trkpt>
      <trkpt lat="49.1615" lon="1.7088">
        <ele>96</ele>
        <time>2017-01-06T10:06:01Z</time>
      </trkpt>
      <trkpt lat="49.16149" lon="1.70887">
        <ele>95</ele>
        <time>2017-01-06T10:06:04Z</time>
      </trkpt>
      <trkpt lat="49.16153" lon="1.70888">
        <ele>95</ele>
        <time>2017-01-06T10:06:07Z</time>
      </trkpt>
      <trkpt lat="49.16152" lon="1.70895">
        <ele>95</ele>
        <time>2017-01-06T10:06:11Z</time>
      </trkpt>
      <trkpt lat="49.16156" lon="1.70902">
        <ele>97</ele>
        <time>2017-01-06T10:06:21Z</time>
      </trkpt>
      <trkpt lat="49.16153" lon="1.70908">
        <ele>96</ele>
        <time>2017-01-06T10:06:24Z</time>
      </trkpt>
      <trkpt lat="49.16154" lon="1.70919">
        <ele>91</ele>
        <time>2017-01-06T10:06:30Z</time>
      </trkpt>
      <trkpt lat="49.1615" lon="1.70922">
        <ele>89</ele>
        <time>2017-01-06T10:06:32Z</time>
      </trkpt>
      <trkpt lat="49.16151" lon="1.7093">
        <ele>88</ele>
        <time>2017-01-06T10:06:35Z</time>
      </trkpt>
      <trkpt lat="49.16147" lon="1.70934">
        <ele>87</ele>
        <time>2017-01-06T10:06:36Z</time>
      </trkpt>
      <trkpt lat="49.16146" lon="1.70949">
        <ele>90</ele>
        <time>2017-01-06T10:06:46Z</time>
      </trkpt>
      <trkpt lat="49.16144" lon="1.70954">
        <ele>90</ele>
        <time>2017-01-06T10:06:48Z</time>
      </trkpt>
      <trkpt lat="49.16147" lon="1.70961">
        <ele>91</ele>
        <time>2017-01-06T10:06:52Z</time>
      </trkpt>
      <trkpt lat="49.16165" lon="1.70982">
        <ele>87</ele>
        <time>2017-01-06T10:07:11Z</time>
      </trkpt>
      <trkpt lat="49.16178" lon="1.70989">
        <ele>84</ele>
        <time>2017-01-06T10:07:21Z</time>
      </trkpt>
      <trkpt lat="49.16189" lon="1.70982">
        <ele>81</ele>
        <time>2017-01-06T10:07:33Z</time>
      </trkpt>
      <trkpt lat="49.16197" lon="1.70985">
        <ele>81</ele>
        <time>2017-01-06T10:07:36Z</time>
      </trkpt>
      <trkpt lat="49.162" lon="1.70991">
        <ele>82</ele>
        <time>2017-01-06T10:07:39Z</time>
      </trkpt>
      <trkpt lat="49.16215" lon="1.70991">
        <ele>85</ele>
        <time>2017-01-06T10:07:48Z</time>
      </trkpt>
      <trkpt lat="49.16218" lon="1.70995">
        <ele>85</ele>
        <time>2017-01-06T10:07:53Z</time>
      </trkpt>
      <trkpt lat="49.16221" lon="1.71007">
        <ele>90</ele>
        <time>2017-01-06T10:08:00Z</time>
      </trkpt>
      <trkpt lat="49.16221" lon="1.71012">
        <ele>93</ele>
        <time>2017-01-06T10:08:03Z</time>
      </trkpt>
      <trkpt lat="49.16223" lon="1.71015">
        <ele>94</ele>
        <time>2017-01-06T10:08:05Z</time>
      </trkpt>
      <trkpt lat="49.16234" lon="1.71024">
        <ele>95</ele>
        <time>2017-01-06T10:08:13Z</time>
      </trkpt>
      <trkpt lat="49.16235" lon="1.71028">
        <ele>94</ele>
        <time>2017-01-06T10:08:18Z</time>
      </trkpt>
      <trkpt lat="49.16235" lon="1.71034">
        <ele>93</ele>
        <time>2017-01-06T10:08:21Z</time>
      </trkpt>
      <trkpt lat="49.16241" lon="1.7104">
        <ele>93</ele>
        <time>2017-01-06T10:08:25Z</time>
      </trkpt>
      <trkpt lat="49.16242" lon="1.71044">
        <ele>93</ele>
        <time>2017-01-06T10:08:28Z</time>
      </trkpt>
      <trkpt lat="49.16242" lon="1.71048">
        <ele>92</ele>
        <time>2017-01-06T10:08:30Z</time>
      </trkpt>
      <trkpt lat="49.16238" lon="1.71047">
        <ele>91</ele>
        <time>2017-01-06T10:08:34Z</time>
      </trkpt>
      <trkpt lat="49.16237" lon="1.71051">
        <ele>86</ele>
        <time>2017-01-06T10:08:41Z</time>
      </trkpt>
      <trkpt lat="49.16239" lon="1.71054">
        <ele>86</ele>
        <time>2017-01-06T10:08:44Z</time>
      </trkpt>
      <trkpt lat="49.16241" lon="1.71062">
        <ele>87</ele>
        <time>2017-01-06T10:08:48Z</time>
      </trkpt>
      <trkpt lat="49.16238" lon="1.71066">
        <ele>89</ele>
        <time>2017-01-06T10:08:50Z</time>
      </trkpt>
      <trkpt lat="49.16242" lon="1.71072">
        <ele>90</ele>
        <time>2017-01-06T10:08:54Z</time>
      </trkpt>
      <trkpt lat="49.16238" lon="1.71078">
        <ele>89</ele>
        <time>2017-01-06T10:08:56Z</time>
      </trkpt>
      <trkpt lat="49.16247" lon="1.71086">
        <ele>91</ele>
        <time>2017-01-06T10:09:09Z</time>
      </trkpt>
      <trkpt lat="49.16251" lon="1.71089">
        <ele>91</ele>
        <time>2017-01-06T10:09:12Z</time>
      </trkpt>
      <trkpt lat="49.16253" lon="1.71092">
        <ele>92</ele>
        <time>2017-01-06T10:09:16Z</time>
      </trkpt>
      <trkpt lat="49.16258" lon="1.71092">
        <ele>93</ele>
        <time>2017-01-06T10:09:17Z</time>
      </trkpt>
      <trkpt lat="49.1626" lon="1.71095">
        <ele>93</ele>
        <time>2017-01-06T10:09:19Z</time>
      </trkpt>
      <trkpt lat="49.16262" lon="1.71091">
        <ele>97</ele>
        <time>2017-01-06T10:09:32Z</time>
      </trkpt>
      <trkpt lat="49.16263" lon="1.71086">
        <ele>98</ele>
        <time>2017-01-06T10:09:36Z</time>
      </trkpt>
      <trkpt lat="49.16266" lon="1.71089">
        <ele>98</ele>
        <time>2017-01-06T10:09:38Z</time>
      </trkpt>
      <trkpt lat="49.1627" lon="1.71088">
        <ele>99</ele>
        <time>2017-01-06T10:09:40Z</time>
      </trkpt>
      <trkpt lat="49.16272" lon="1.71085">
        <ele>99</ele>
        <time>2017-01-06T10:09:43Z</time>
      </trkpt>
      <trkpt lat="49.16275" lon="1.71083">
        <ele>100</ele>
        <time>2017-01-06T10:09:48Z</time>
      </trkpt>
      <trkpt lat="49.16277" lon="1.71078">
        <ele>100</ele>
        <time>2017-01-06T10:09:52Z</time>
      </trkpt>
      <trkpt lat="49.16284" lon="1.71076">
        <ele>102</ele>
        <time>2017-01-06T10:09:58Z</time>
      </trkpt>
      <trkpt lat="49.16303" lon="1.71065">
        <ele>104</ele>
        <time>2017-01-06T10:10:17Z</time>
      </trkpt>
      <trkpt lat="49.16306" lon="1.71061">
        <ele>104</ele>
        <time>2017-01-06T10:10:19Z</time>
      </trkpt>
      <trkpt lat="49.1631" lon="1.71059">
        <ele>104</ele>
        <time>2017-01-06T10:10:21Z</time>
      </trkpt>
      <trkpt lat="49.16312" lon="1.71063">
        <ele>105</ele>
        <time>2017-01-06T10:10:23Z</time>
      </trkpt>
      <trkpt lat="49.16317" lon="1.71064">
        <ele>103</ele>
        <time>2017-01-06T10:10:26Z</time>
      </trkpt>
      <trkpt lat="49.16318" lon="1.71059">
        <ele>103</ele>
        <time>2017-01-06T10:10:28Z</time>
      </trkpt>
      <trkpt lat="49.16322" lon="1.71058">
        <ele>103</ele>
        <time>2017-01-06T10:10:31Z</time>
      </trkpt>
      <trkpt lat="49.16328" lon="1.71054">
        <ele>103</ele>
        <time>2017-01-06T10:10:39Z</time>
      </trkpt>
      <trkpt lat="49.16344" lon="1.71046">
        <ele>108</ele>
        <time>2017-01-06T10:10:53Z</time>
      </trkpt>
      <trkpt lat="49.16347" lon="1.71049">
        <ele>107</ele>
        <time>2017-01-06T10:10:55Z</time>
      </trkpt>
      <trkpt lat="49.1635" lon="1.71045">
        <ele>106</ele>
        <time>2017-01-06T10:10:59Z</time>
      </trkpt>
      <trkpt lat="49.16353" lon="1.71046">
        <ele>107</ele>
        <time>2017-01-06T10:11:01Z</time>
      </trkpt>
      <trkpt lat="49.16373" lon="1.71037">
        <ele>110</ele>
        <time>2017-01-06T10:11:19Z</time>
      </trkpt>
      <trkpt lat="49.16382" lon="1.71037">
        <ele>107</ele>
        <time>2017-01-06T10:11:29Z</time>
      </trkpt>
      <trkpt lat="49.16395" lon="1.71034">
        <ele>111</ele>
        <time>2017-01-06T10:11:41Z</time>
      </trkpt>
      <trkpt lat="49.16429" lon="1.71027">
        <ele>110</ele>
        <time>2017-01-06T10:12:11Z</time>
      </trkpt>
      <trkpt lat="49.16461" lon="1.71028">
        <ele>113</ele>
        <time>2017-01-06T10:12:42Z</time>
      </trkpt>
      <trkpt lat="49.16494" lon="1.71046">
        <ele>116</ele>
        <time>2017-01-06T10:13:12Z</time>
      </trkpt>
      <trkpt lat="49.16507" lon="1.71054">
        <ele>113</ele>
        <time>2017-01-06T10:13:24Z</time>
      </trkpt>
      <trkpt lat="49.1651" lon="1.71051">
        <ele>113</ele>
        <time>2017-01-06T10:13:27Z</time>
      </trkpt>
      <trkpt lat="49.16546" lon="1.71074">
        <ele>113</ele>
        <time>2017-01-06T10:13:59Z</time>
      </trkpt>
      <trkpt lat="49.1655" lon="1.7108">
        <ele>115</ele>
        <time>2017-01-06T10:14:02Z</time>
      </trkpt>
      <trkpt lat="49.16559" lon="1.71084">
        <ele>114</ele>
        <time>2017-01-06T10:14:09Z</time>
      </trkpt>
      <trkpt lat="49.16564" lon="1.71087">
        <ele>113</ele>
        <time>2017-01-06T10:14:14Z</time>
      </trkpt>
      <trkpt lat="49.16573" lon="1.71087">
        <ele>109</ele>
        <time>2017-01-06T10:14:19Z</time>
      </trkpt>
      <trkpt lat="49.16577" lon="1.71092">
        <ele>108</ele>
        <time>2017-01-06T10:14:23Z</time>
      </trkpt>
      <trkpt lat="49.16602" lon="1.71115">
        <ele>114</ele>
        <time>2017-01-06T10:14:50Z</time>
      </trkpt>
      <trkpt lat="49.16606" lon="1.71114">
        <ele>115</ele>
        <time>2017-01-06T10:14:54Z</time>
      </trkpt>
      <trkpt lat="49.16609" lon="1.71119">
        <ele>115</ele>
        <time>2017-01-06T10:14:56Z</time>
      </trkpt>
      <trkpt lat="49.16611" lon="1.71124">
        <ele>117</ele>
        <time>2017-01-06T10:14:59Z</time>
      </trkpt>
      <trkpt lat="49.16616" lon="1.71126">
        <ele>118</ele>
        <time>2017-01-06T10:15:03Z</time>
      </trkpt>
      <trkpt lat="49.16627" lon="1.71133">
        <ele>118</ele>
        <time>2017-01-06T10:15:13Z</time>
      </trkpt>
      <trkpt lat="49.16633" lon="1.71132">
        <ele>118</ele>
        <time>2017-01-06T10:15:17Z</time>
      </trkpt>
      <trkpt lat="49.16642" lon="1.71138">
        <ele>119</ele>
        <time>2017-01-06T10:15:24Z</time>
      </trkpt>
      <trkpt lat="49.16646" lon="1.71138">
        <ele>119</ele>
        <time>2017-01-06T10:15:27Z</time>
      </trkpt>
      <trkpt lat="49.16678" lon="1.71164">
        <ele>114</ele>
        <time>2017-01-06T10:15:57Z</time>
      </trkpt>
      <trkpt lat="49.16699" lon="1.71182">
        <ele>114</ele>
        <time>2017-01-06T10:16:15Z</time>
      </trkpt>
      <trkpt lat="49.16717" lon="1.71209">
        <ele>116</ele>
        <time>2017-01-06T10:16:37Z</time>
      </trkpt>
      <trkpt lat="49.16721" lon="1.71212">
        <ele>116</ele>
        <time>2017-01-06T10:16:42Z</time>
      </trkpt>
      <trkpt lat="49.16724" lon="1.71223">
        <ele>118</ele>
        <time>2017-01-06T10:16:45Z</time>
      </trkpt>
      <trkpt lat="49.16729" lon="1.71235">
        <ele>122</ele>
        <time>2017-01-06T10:16:56Z</time>
      </trkpt>
      <trkpt lat="49.16733" lon="1.71239">
        <ele>121</ele>
        <time>2017-01-06T10:16:59Z</time>
      </trkpt>
      <trkpt lat="49.16733" lon="1.71246">
        <ele>121</ele>
        <time>2017-01-06T10:17:01Z</time>
      </trkpt>
      <trkpt lat="49.16741" lon="1.71251">
        <ele>118</ele>
        <time>2017-01-06T10:17:06Z</time>
      </trkpt>
      <trkpt lat="49.16745" lon="1.71254">
        <ele>114</ele>
        <time>2017-01-06T10:17:10Z</time>
      </trkpt>
      <trkpt lat="49.16752" lon="1.71269">
        <ele>115</ele>
        <time>2017-01-06T10:17:20Z</time>
      </trkpt>
      <trkpt lat="49.16758" lon="1.71274">
        <ele>116</ele>
        <time>2017-01-06T10:17:25Z</time>
      </trkpt>
      <trkpt lat="49.16764" lon="1.71295">
        <ele>116</ele>
        <time>2017-01-06T10:17:35Z</time>
      </trkpt>
      <trkpt lat="49.16768" lon="1.71295">
        <ele>116</ele>
        <time>2017-01-06T10:17:38Z</time>
      </trkpt>
      <trkpt lat="49.16793" lon="1.71336">
        <ele>117</ele>
        <time>2017-01-06T10:18:09Z</time>
      </trkpt>
      <trkpt lat="49.16796" lon="1.71341">
        <ele>117</ele>
        <time>2017-01-06T10:18:12Z</time>
      </trkpt>
      <trkpt lat="49.16798" lon="1.71354">
        <ele>118</ele>
        <time>2017-01-06T10:18:17Z</time>
      </trkpt>
      <trkpt lat="49.16807" lon="1.71358">
        <ele>117</ele>
        <time>2017-01-06T10:18:23Z</time>
      </trkpt>
      <trkpt lat="49.16811" lon="1.71356">
        <ele>114</ele>
        <time>2017-01-06T10:18:25Z</time>
      </trkpt>
      <trkpt lat="49.16814" lon="1.71362">
        <ele>114</ele>
        <time>2017-01-06T10:18:29Z</time>
      </trkpt>
      <trkpt lat="49.16818" lon="1.71378">
        <ele>116</ele>
        <time>2017-01-06T10:18:36Z</time>
      </trkpt>
      <trkpt lat="49.16818" lon="1.71387">
        <ele>119</ele>
        <time>2017-01-06T10:18:40Z</time>
      </trkpt>
      <trkpt lat="49.1683" lon="1.71405">
        <ele>120</ele>
        <time>2017-01-06T10:18:53Z</time>
      </trkpt>
      <trkpt lat="49.16834" lon="1.71409">
        <ele>122</ele>
        <time>2017-01-06T10:19:02Z</time>
      </trkpt>
      <trkpt lat="49.16848" lon="1.71439">
        <ele>128</ele>
        <time>2017-01-06T10:19:27Z</time>
      </trkpt>
      <trkpt lat="49.1685" lon="1.71443">
        <ele>128</ele>
        <time>2017-01-06T10:21:32Z</time>
      </trkpt>
      <trkpt lat="49.16853" lon="1.71438">
        <ele>127</ele>
        <time>2017-01-06T10:21:48Z</time>
      </trkpt>
      <trkpt lat="49.16851" lon="1.71438">
        <ele>128</ele>
        <time>2017-01-06T10:22:14Z</time>
      </trkpt>
      <trkpt lat="49.1685" lon="1.71443">
        <ele>128</ele>
        <time>2017-01-06T10:22:20Z</time>
      </trkpt>
      <trkpt lat="49.16852" lon="1.71449">
        <ele>128</ele>
        <time>2017-01-06T10:22:23Z</time>
      </trkpt>
      <trkpt lat="49.16855" lon="1.71445">
        <ele>127</ele>
        <time>2017-01-06T10:22:31Z</time>
      </trkpt>
      <trkpt lat="49.16855" lon="1.71444">
        <ele>127</ele>
        <time>2017-01-06T10:22:52Z</time>
      </trkpt>
      <trkpt lat="49.16855" lon="1.71448">
        <ele>129</ele>
        <time>2017-01-06T10:23:06Z</time>
      </trkpt>
      <trkpt lat="49.1686" lon="1.71445">
        <ele>133</ele>
        <time>2017-01-06T10:23:10Z</time>
      </trkpt>
      <trkpt lat="49.16856" lon="1.71444">
        <ele>133</ele>
        <time>2017-01-06T10:23:15Z</time>
      </trkpt>
      <trkpt lat="49.16851" lon="1.71439">
        <ele>134</ele>
        <time>2017-01-06T10:23:23Z</time>
      </trkpt>
      <trkpt lat="49.1685" lon="1.71442">
        <ele>129</ele>
        <time>2017-01-06T10:23:40Z</time>
      </trkpt>
      <trkpt lat="49.16852" lon="1.71448">
        <ele>129</ele>
        <time>2017-01-06T10:23:42Z</time>
      </trkpt>
      <trkpt lat="49.16853" lon="1.71447">
        <ele>132</ele>
        <time>2017-01-06T10:23:56Z</time>
      </trkpt>
      <trkpt lat="49.16855" lon="1.71445">
        <ele>127</ele>
        <time>2017-01-06T10:24:08Z</time>
      </trkpt>
      <trkpt lat="49.16857" lon="1.71443">
        <ele>126</ele>
        <time>2017-01-06T10:24:28Z</time>
      </trkpt>
      <trkpt lat="49.16861" lon="1.71448">
        <ele>125</ele>
        <time>2017-01-06T10:24:32Z</time>
      </trkpt>
      <trkpt lat="49.16866" lon="1.71451">
        <ele>125</ele>
        <time>2017-01-06T10:24:35Z</time>
      </trkpt>
      <trkpt lat="49.16863" lon="1.71455">
        <ele>126</ele>
        <time>2017-01-06T10:24:42Z</time>
      </trkpt>
      <trkpt lat="49.16868" lon="1.71458">
        <ele>125</ele>
        <time>2017-01-06T10:24:45Z</time>
      </trkpt>
      <trkpt lat="49.16872" lon="1.71461">
        <ele>124</ele>
        <time>2017-01-06T10:24:48Z</time>
      </trkpt>
      <trkpt lat="49.16876" lon="1.71469">
        <ele>121</ele>
        <time>2017-01-06T10:24:56Z</time>
      </trkpt>
      <trkpt lat="49.16881" lon="1.71471">
        <ele>121</ele>
        <time>2017-01-06T10:24:59Z</time>
      </trkpt>
      <trkpt lat="49.16889" lon="1.7148">
        <ele>124</ele>
        <time>2017-01-06T10:25:08Z</time>
      </trkpt>
      <trkpt lat="49.16891" lon="1.71483">
        <ele>125</ele>
        <time>2017-01-06T10:25:11Z</time>
      </trkpt>
      <trkpt lat="49.16898" lon="1.71488">
        <ele>125</ele>
        <time>2017-01-06T10:25:18Z</time>
      </trkpt>
      <trkpt lat="49.1691" lon="1.71507">
        <ele>130</ele>
        <time>2017-01-06T10:25:34Z</time>
      </trkpt>
      <trkpt lat="49.16918" lon="1.71515">
        <ele>133</ele>
        <time>2017-01-06T10:25:41Z</time>
      </trkpt>
      <trkpt lat="49.16919" lon="1.7152">
        <ele>133</ele>
        <time>2017-01-06T10:25:44Z</time>
      </trkpt>
      <trkpt lat="49.1692" lon="1.71533">
        <ele>136</ele>
        <time>2017-01-06T10:25:56Z</time>
      </trkpt>
      <trkpt lat="49.16913" lon="1.71542">
        <ele>135</ele>
        <time>2017-01-06T10:26:00Z</time>
      </trkpt>
      <trkpt lat="49.16914" lon="1.71549">
        <ele>135</ele>
        <time>2017-01-06T10:26:03Z</time>
      </trkpt>
      <trkpt lat="49.16913" lon="1.71556">
        <ele>135</ele>
        <time>2017-01-06T10:26:06Z</time>
      </trkpt>
      <trkpt lat="49.16907" lon="1.71568">
        <ele>134</ele>
        <time>2017-01-06T10:26:15Z</time>
      </trkpt>
      <trkpt lat="49.16904" lon="1.71574">
        <ele>134</ele>
        <time>2017-01-06T10:26:18Z</time>
      </trkpt>
      <trkpt lat="49.16902" lon="1.71587">
        <ele>134</ele>
        <time>2017-01-06T10:26:28Z</time>
      </trkpt>
      <trkpt lat="49.16895" lon="1.71606">
        <ele>131</ele>
        <time>2017-01-06T10:26:38Z</time>
      </trkpt>
      <trkpt lat="49.16893" lon="1.71615">
        <ele>131</ele>
        <time>2017-01-06T10:26:44Z</time>
      </trkpt>
      <trkpt lat="49.16896" lon="1.7162">
        <ele>129</ele>
        <time>2017-01-06T10:26:46Z</time>
      </trkpt>
      <trkpt lat="49.16892" lon="1.71628">
        <ele>129</ele>
        <time>2017-01-06T10:26:53Z</time>
      </trkpt>
      <trkpt lat="49.16888" lon="1.71635">
        <ele>129</ele>
        <time>2017-01-06T10:26:56Z</time>
      </trkpt>
      <trkpt lat="49.16882" lon="1.71638">
        <ele>129</ele>
        <time>2017-01-06T10:26:59Z</time>
      </trkpt>
      <trkpt lat="49.1688" lon="1.71645">
        <ele>129</ele>
        <time>2017-01-06T10:27:02Z</time>
      </trkpt>
      <trkpt lat="49.16881" lon="1.71653">
        <ele>129</ele>
        <time>2017-01-06T10:27:06Z</time>
      </trkpt>
      <trkpt lat="49.16875" lon="1.71658">
        <ele>129</ele>
        <time>2017-01-06T10:27:11Z</time>
      </trkpt>
      <trkpt lat="49.16875" lon="1.71667">
        <ele>128</ele>
        <time>2017-01-06T10:27:18Z</time>
      </trkpt>
      <trkpt lat="49.16869" lon="1.71679">
        <ele>129</ele>
        <time>2017-01-06T10:27:25Z</time>
      </trkpt>
      <trkpt lat="49.16866" lon="1.71706">
        <ele>129</ele>
        <time>2017-01-06T10:27:40Z</time>
      </trkpt>
      <trkpt lat="49.16861" lon="1.71711">
        <ele>130</ele>
        <time>2017-01-06T10:27:43Z</time>
      </trkpt>
      <trkpt lat="49.1686" lon="1.71716">
        <ele>132</ele>
        <time>2017-01-06T10:27:46Z</time>
      </trkpt>
      <trkpt lat="49.16856" lon="1.71721">
        <ele>133</ele>
        <time>2017-01-06T10:27:50Z</time>
      </trkpt>
      <trkpt lat="49.16857" lon="1.71727">
        <ele>132</ele>
        <time>2017-01-06T10:27:53Z</time>
      </trkpt>
      <trkpt lat="49.16855" lon="1.71733">
        <ele>131</ele>
        <time>2017-01-06T10:27:55Z</time>
      </trkpt>
      <trkpt lat="49.16855" lon="1.71739">
        <ele>131</ele>
        <time>2017-01-06T10:28:00Z</time>
      </trkpt>
      <trkpt lat="49.16852" lon="1.71745">
        <ele>130</ele>
        <time>2017-01-06T10:28:03Z</time>
      </trkpt>
      <trkpt lat="49.16856" lon="1.71749">
        <ele>129</ele>
        <time>2017-01-06T10:28:05Z</time>
      </trkpt>
      <trkpt lat="49.16854" lon="1.71762">
        <ele>130</ele>
        <time>2017-01-06T10:28:13Z</time>
      </trkpt>
      <trkpt lat="49.1685" lon="1.71768">
        <ele>129</ele>
        <time>2017-01-06T10:28:17Z</time>
      </trkpt>
      <trkpt lat="49.16851" lon="1.71774">
        <ele>129</ele>
        <time>2017-01-06T10:28:21Z</time>
      </trkpt>
      <trkpt lat="49.16854" lon="1.7178">
        <ele>129</ele>
        <time>2017-01-06T10:28:24Z</time>
      </trkpt>
      <trkpt lat="49.16858" lon="1.71784">
        <ele>130</ele>
        <time>2017-01-06T10:28:28Z</time>
      </trkpt>
      <trkpt lat="49.16863" lon="1.71781">
        <ele>130</ele>
        <time>2017-01-06T10:28:34Z</time>
      </trkpt>
      <trkpt lat="49.16866" lon="1.71785">
        <ele>133</ele>
        <time>2017-01-06T10:28:38Z</time>
      </trkpt>
      <trkpt lat="49.16878" lon="1.71793">
        <ele>133</ele>
        <time>2017-01-06T10:28:49Z</time>
      </trkpt>
      <trkpt lat="49.16887" lon="1.71794">
        <ele>134</ele>
        <time>2017-01-06T10:28:55Z</time>
      </trkpt>
      <trkpt lat="49.16892" lon="1.71802">
        <ele>134</ele>
        <time>2017-01-06T10:28:59Z</time>
      </trkpt>
      <trkpt lat="49.16899" lon="1.71806">
        <ele>135</ele>
        <time>2017-01-06T10:29:11Z</time>
      </trkpt>
      <trkpt lat="49.16906" lon="1.71811">
        <ele>137</ele>
        <time>2017-01-06T10:29:17Z</time>
      </trkpt>
      <trkpt lat="49.16911" lon="1.71825">
        <ele>137</ele>
        <time>2017-01-06T10:29:30Z</time>
      </trkpt>
      <trkpt lat="49.16918" lon="1.71824">
        <ele>136</ele>
        <time>2017-01-06T10:29:32Z</time>
      </trkpt>
      <trkpt lat="49.16928" lon="1.71846">
        <ele>135</ele>
        <time>2017-01-06T10:29:53Z</time>
      </trkpt>
      <trkpt lat="49.16944" lon="1.71857">
        <ele>135</ele>
        <time>2017-01-06T10:30:10Z</time>
      </trkpt>
      <trkpt lat="49.16946" lon="1.71865">
        <ele>135</ele>
        <time>2017-01-06T10:30:16Z</time>
      </trkpt>
      <trkpt lat="49.16952" lon="1.71868">
        <ele>135</ele>
        <time>2017-01-06T10:30:19Z</time>
      </trkpt>
      <trkpt lat="49.16957" lon="1.71882">
        <ele>137</ele>
        <time>2017-01-06T10:30:31Z</time>
      </trkpt>
      <trkpt lat="49.16974" lon="1.719">
        <ele>141</ele>
        <time>2017-01-06T10:30:51Z</time>
      </trkpt>
      <trkpt lat="49.16978" lon="1.71904">
        <ele>143</ele>
        <time>2017-01-06T10:30:56Z</time>
      </trkpt>
      <trkpt lat="49.16984" lon="1.71906">
        <ele>142</ele>
        <time>2017-01-06T10:31:03Z</time>
      </trkpt>
      <trkpt lat="49.16988" lon="1.7191">
        <ele>141</ele>
        <time>2017-01-06T10:31:13Z</time>
      </trkpt>
      <trkpt lat="49.16996" lon="1.7191">
        <ele>145</ele>
        <time>2017-01-06T10:31:21Z</time>
      </trkpt>
      <trkpt lat="49.16998" lon="1.71918">
        <ele>146</ele>
        <time>2017-01-06T10:31:24Z</time>
      </trkpt>
      <trkpt lat="49.17004" lon="1.71922">
        <ele>146</ele>
        <time>2017-01-06T10:31:27Z</time>
      </trkpt>
      <trkpt lat="49.17009" lon="1.71931">
        <ele>144</ele>
        <time>2017-01-06T10:31:34Z</time>
      </trkpt>
      <trkpt lat="49.17015" lon="1.71933">
        <ele>142</ele>
        <time>2017-01-06T10:31:38Z</time>
      </trkpt>
      <trkpt lat="49.17022" lon="1.71937">
        <ele>146</ele>
        <time>2017-01-06T10:31:46Z</time>
      </trkpt>
      <trkpt lat="49.17023" lon="1.71948">
        <ele>148</ele>
        <time>2017-01-06T10:31:53Z</time>
      </trkpt>
      <trkpt lat="49.17027" lon="1.71954">
        <ele>148</ele>
        <time>2017-01-06T10:31:55Z</time>
      </trkpt>
      <trkpt lat="49.1704" lon="1.71961">
        <ele>145</ele>
        <time>2017-01-06T10:32:14Z</time>
      </trkpt>
      <trkpt lat="49.17043" lon="1.7197">
        <ele>143</ele>
        <time>2017-01-06T10:32:20Z</time>
      </trkpt>
      <trkpt lat="49.17048" lon="1.71987">
        <ele>139</ele>
        <time>2017-01-06T10:32:29Z</time>
      </trkpt>
      <trkpt lat="49.17058" lon="1.71997">
        <ele>139</ele>
        <time>2017-01-06T10:32:36Z</time>
      </trkpt>
      <trkpt lat="49.17072" lon="1.7201">
        <ele>145</ele>
        <time>2017-01-06T10:32:53Z</time>
      </trkpt>
      <trkpt lat="49.17073" lon="1.72014">
        <ele>150</ele>
        <time>2017-01-06T10:33:00Z</time>
      </trkpt>
      <trkpt lat="49.17084" lon="1.72021">
        <ele>150</ele>
        <time>2017-01-06T10:33:08Z</time>
      </trkpt>
      <trkpt lat="49.17087" lon="1.72019">
        <ele>148</ele>
        <time>2017-01-06T10:33:13Z</time>
      </trkpt>
      <trkpt lat="49.17088" lon="1.72013">
        <ele>148</ele>
        <time>2017-01-06T10:33:18Z</time>
      </trkpt>
      <trkpt lat="49.17092" lon="1.72004">
        <ele>147</ele>
        <time>2017-01-06T10:33:23Z</time>
      </trkpt>
      <trkpt lat="49.17095" lon="1.72007">
        <ele>147</ele>
        <time>2017-01-06T10:33:25Z</time>
      </trkpt>
      <trkpt lat="49.17098" lon="1.72005">
        <ele>146</ele>
        <time>2017-01-06T10:33:27Z</time>
      </trkpt>
      <trkpt lat="49.17099" lon="1.72001">
        <ele>146</ele>
        <time>2017-01-06T10:33:33Z</time>
      </trkpt>
      <trkpt lat="49.17106" lon="1.71988">
        <ele>147</ele>
        <time>2017-01-06T10:33:39Z</time>
      </trkpt>
      <trkpt lat="49.17109" lon="1.71987">
        <ele>148</ele>
        <time>2017-01-06T10:33:41Z</time>
      </trkpt>
      <trkpt lat="49.17141" lon="1.7199">
        <ele>149</ele>
        <time>2017-01-06T10:34:12Z</time>
      </trkpt>
      <trkpt lat="49.17171" lon="1.71998">
        <ele>151</ele>
        <time>2017-01-06T10:34:42Z</time>
      </trkpt>
      <trkpt lat="49.17185" lon="1.72007">
        <ele>151</ele>
        <time>2017-01-06T10:34:56Z</time>
      </trkpt>
      <trkpt lat="49.1719" lon="1.72002">
        <ele>150</ele>
        <time>2017-01-06T10:34:59Z</time>
      </trkpt>
      <trkpt lat="49.17195" lon="1.72003">
        <ele>149</ele>
        <time>2017-01-06T10:35:02Z</time>
      </trkpt>
      <trkpt lat="49.17195" lon="1.72009">
        <ele>149</ele>
        <time>2017-01-06T10:35:05Z</time>
      </trkpt>
      <trkpt lat="49.17196" lon="1.72012">
        <ele>149</ele>
        <time>2017-01-06T10:35:07Z</time>
      </trkpt>
      <trkpt lat="49.17202" lon="1.72014">
        <ele>149</ele>
        <time>2017-01-06T10:35:16Z</time>
      </trkpt>
      <trkpt lat="49.17238" lon="1.72027">
        <ele>149</ele>
        <time>2017-01-06T10:35:47Z</time>
      </trkpt>
      <trkpt lat="49.17247" lon="1.72029">
        <ele>150</ele>
        <time>2017-01-06T10:35:55Z</time>
      </trkpt>
      <trkpt lat="49.17251" lon="1.72027">
        <ele>150</ele>
        <time>2017-01-06T10:35:58Z</time>
      </trkpt>
      <trkpt lat="49.17278" lon="1.72024">
        <ele>151</ele>
        <time>2017-01-06T10:36:17Z</time>
      </trkpt>
      <trkpt lat="49.17274" lon="1.72023">
        <ele>151</ele>
        <time>2017-01-06T10:36:19Z</time>
      </trkpt>
      <trkpt lat="49.17278" lon="1.72018">
        <ele>150</ele>
        <time>2017-01-06T10:36:21Z</time>
      </trkpt>
      <trkpt lat="49.1728" lon="1.72015">
        <ele>151</ele>
        <time>2017-01-06T10:36:24Z</time>
      </trkpt>
      <trkpt lat="49.17282" lon="1.7201">
        <ele>151</ele>
        <time>2017-01-06T10:36:28Z</time>
      </trkpt>
      <trkpt lat="49.17282" lon="1.72004">
        <ele>153</ele>
        <time>2017-01-06T10:36:32Z</time>
      </trkpt>
      <trkpt lat="49.17285" lon="1.71994">
        <ele>153</ele>
        <time>2017-01-06T10:36:37Z</time>
      </trkpt>
      <trkpt lat="49.17293" lon="1.71972">
        <ele>152</ele>
        <time>2017-01-06T10:36:53Z</time>
      </trkpt>
      <trkpt lat="49.17299" lon="1.71973">
        <ele>154</ele>
        <time>2017-01-06T10:37:02Z</time>
      </trkpt>
      <trkpt lat="49.17308" lon="1.71982">
        <ele>153</ele>
        <time>2017-01-06T10:37:08Z</time>
      </trkpt>
      <trkpt lat="49.17309" lon="1.71987">
        <ele>152</ele>
        <time>2017-01-06T10:37:15Z</time>
      </trkpt>
      <trkpt lat="49.17314" lon="1.71991">
        <ele>151</ele>
        <time>2017-01-06T10:37:18Z</time>
      </trkpt>
      <trkpt lat="49.1733" lon="1.72008">
        <ele>151</ele>
        <time>2017-01-06T10:37:34Z</time>
      </trkpt>
      <trkpt lat="49.17337" lon="1.72018">
        <ele>152</ele>
        <time>2017-01-06T10:37:45Z</time>
      </trkpt>
      <trkpt lat="49.17344" lon="1.72019">
        <ele>151</ele>
        <time>2017-01-06T10:37:50Z</time>
      </trkpt>
      <trkpt lat="49.17354" lon="1.72033">
        <ele>143</ele>
        <time>2017-01-06T10:38:02Z</time>
      </trkpt>
      <trkpt lat="49.17368" lon="1.72039">
        <ele>139</ele>
        <time>2017-01-06T10:38:09Z</time>
      </trkpt>
      <trkpt lat="49.17371" lon="1.72049">
        <ele>140</ele>
        <time>2017-01-06T10:38:14Z</time>
      </trkpt>
      <trkpt lat="49.17376" lon="1.72058">
        <ele>142</ele>
        <time>2017-01-06T10:38:19Z</time>
      </trkpt>
      <trkpt lat="49.17381" lon="1.72064">
        <ele>144</ele>
        <time>2017-01-06T10:38:25Z</time>
      </trkpt>
      <trkpt lat="49.17394" lon="1.72089">
        <ele>145</ele>
        <time>2017-01-06T10:38:41Z</time>
      </trkpt>
      <trkpt lat="49.174" lon="1.72088">
        <ele>146</ele>
        <time>2017-01-06T10:38:44Z</time>
      </trkpt>
      <trkpt lat="49.17398" lon="1.72098">
        <ele>145</ele>
        <time>2017-01-06T10:38:50Z</time>
      </trkpt>
      <trkpt lat="49.17406" lon="1.72103">
        <ele>144</ele>
        <time>2017-01-06T10:38:58Z</time>
      </trkpt>
      <trkpt lat="49.17414" lon="1.72108">
        <ele>141</ele>
        <time>2017-01-06T10:39:04Z</time>
      </trkpt>
      <trkpt lat="49.17419" lon="1.72118">
        <ele>138</ele>
        <time>2017-01-06T10:39:11Z</time>
      </trkpt>
      <trkpt lat="49.17434" lon="1.72129">
        <ele>135</ele>
        <time>2017-01-06T10:39:23Z</time>
      </trkpt>
      <trkpt lat="49.17439" lon="1.72139">
        <ele>134</ele>
        <time>2017-01-06T10:39:29Z</time>
      </trkpt>
      <trkpt lat="49.17445" lon="1.72147">
        <ele>133</ele>
        <time>2017-01-06T10:39:34Z</time>
      </trkpt>
      <trkpt lat="49.17462" lon="1.72155">
        <ele>131</ele>
        <time>2017-01-06T10:39:43Z</time>
      </trkpt>
      <trkpt lat="49.17471" lon="1.72156">
        <ele>136</ele>
        <time>2017-01-06T10:39:58Z</time>
      </trkpt>
      <trkpt lat="49.17494" lon="1.72137">
        <ele>144</ele>
        <time>2017-01-06T10:40:29Z</time>
      </trkpt>
      <trkpt lat="49.17522" lon="1.72083">
        <ele>147</ele>
        <time>2017-01-06T10:41:00Z</time>
      </trkpt>
      <trkpt lat="49.17548" lon="1.72046">
        <ele>147</ele>
        <time>2017-01-06T10:41:33Z</time>
      </trkpt>
      <trkpt lat="49.17553" lon="1.7204">
        <ele>146</ele>
        <time>2017-01-06T10:41:38Z</time>
      </trkpt>
      <trkpt lat="49.17555" lon="1.7203">
        <ele>145</ele>
        <time>2017-01-06T10:41:45Z</time>
      </trkpt>
      <trkpt lat="49.17566" lon="1.72019">
        <ele>142</ele>
        <time>2017-01-06T10:41:58Z</time>
      </trkpt>
      <trkpt lat="49.17567" lon="1.72013">
        <ele>143</ele>
        <time>2017-01-06T10:42:00Z</time>
      </trkpt>
      <trkpt lat="49.17573" lon="1.72008">
        <ele>142</ele>
        <time>2017-01-06T10:42:06Z</time>
      </trkpt>
      <trkpt lat="49.17579" lon="1.71996">
        <ele>139</ele>
        <time>2017-01-06T10:42:15Z</time>
      </trkpt>
      <trkpt lat="49.17583" lon="1.7199">
        <ele>139</ele>
        <time>2017-01-06T10:42:18Z</time>
      </trkpt>
      <trkpt lat="49.17587" lon="1.71985">
        <ele>139</ele>
        <time>2017-01-06T10:42:22Z</time>
      </trkpt>
      <trkpt lat="49.1759" lon="1.71982">
        <ele>139</ele>
        <time>2017-01-06T10:42:26Z</time>
      </trkpt>
      <trkpt lat="49.17594" lon="1.71975">
        <ele>139</ele>
        <time>2017-01-06T10:42:30Z</time>
      </trkpt>
      <trkpt lat="49.17598" lon="1.71974">
        <ele>139</ele>
        <time>2017-01-06T10:42:33Z</time>
      </trkpt>
      <trkpt lat="49.17605" lon="1.7197">
        <ele>139</ele>
        <time>2017-01-06T10:42:35Z</time>
      </trkpt>
      <trkpt lat="49.1761" lon="1.71964">
        <ele>139</ele>
        <time>2017-01-06T10:42:44Z</time>
      </trkpt>
      <trkpt lat="49.17614" lon="1.7197">
        <ele>136</ele>
        <time>2017-01-06T10:42:52Z</time>
      </trkpt>
      <trkpt lat="49.17623" lon="1.71987">
        <ele>136</ele>
        <time>2017-01-06T10:43:10Z</time>
      </trkpt>
      <trkpt lat="49.17623" lon="1.72006">
        <ele>135</ele>
        <time>2017-01-06T10:43:17Z</time>
      </trkpt>
      <trkpt lat="49.17622" lon="1.72027">
        <ele>134</ele>
        <time>2017-01-06T10:43:28Z</time>
      </trkpt>
      <trkpt lat="49.17616" lon="1.72067">
        <ele>135</ele>
        <time>2017-01-06T10:43:52Z</time>
      </trkpt>
      <trkpt lat="49.17614" lon="1.72078">
        <ele>132</ele>
        <time>2017-01-06T10:43:58Z</time>
      </trkpt>
      <trkpt lat="49.17619" lon="1.72085">
        <ele>131</ele>
        <time>2017-01-06T10:44:03Z</time>
      </trkpt>
      <trkpt lat="49.17618" lon="1.72093">
        <ele>131</ele>
        <time>2017-01-06T10:44:07Z</time>
      </trkpt>
      <trkpt lat="49.17618" lon="1.721">
        <ele>131</ele>
        <time>2017-01-06T10:44:11Z</time>
      </trkpt>
      <trkpt lat="49.17615" lon="1.72104">
        <ele>131</ele>
        <time>2017-01-06T10:44:14Z</time>
      </trkpt>
      <trkpt lat="49.17616" lon="1.72113">
        <ele>131</ele>
        <time>2017-01-06T10:44:19Z</time>
      </trkpt>
      <trkpt lat="49.1762" lon="1.72122">
        <ele>130</ele>
        <time>2017-01-06T10:44:23Z</time>
      </trkpt>
      <trkpt lat="49.17618" lon="1.72132">
        <ele>128</ele>
        <time>2017-01-06T10:44:30Z</time>
      </trkpt>
      <trkpt lat="49.17622" lon="1.72138">
        <ele>124</ele>
        <time>2017-01-06T10:44:34Z</time>
      </trkpt>
      <trkpt lat="49.17623" lon="1.72146">
        <ele>124</ele>
        <time>2017-01-06T10:44:39Z</time>
      </trkpt>
      <trkpt lat="49.17642" lon="1.7217">
        <ele>114</ele>
        <time>2017-01-06T10:44:56Z</time>
      </trkpt>
      <trkpt lat="49.17645" lon="1.72181">
        <ele>113</ele>
        <time>2017-01-06T10:44:59Z</time>
      </trkpt>
      <trkpt lat="49.17649" lon="1.72186">
        <ele>123</ele>
        <time>2017-01-06T10:45:04Z</time>
      </trkpt>
      <trkpt lat="49.17652" lon="1.72192">
        <ele>118</ele>
        <time>2017-01-06T10:45:12Z</time>
      </trkpt>
      <trkpt lat="49.17653" lon="1.72201">
        <ele>116</ele>
        <time>2017-01-06T10:45:15Z</time>
      </trkpt>
      <trkpt lat="49.17657" lon="1.72202">
        <ele>115</ele>
        <time>2017-01-06T10:45:18Z</time>
      </trkpt>
      <trkpt lat="49.17669" lon="1.72224">
        <ele>114</ele>
        <time>2017-01-06T10:45:32Z</time>
      </trkpt>
      <trkpt lat="49.1767" lon="1.72231">
        <ele>113</ele>
        <time>2017-01-06T10:45:35Z</time>
      </trkpt>
      <trkpt lat="49.17667" lon="1.72238">
        <ele>115</ele>
        <time>2017-01-06T10:45:37Z</time>
      </trkpt>
      <trkpt lat="49.17668" lon="1.72244">
        <ele>117</ele>
        <time>2017-01-06T10:45:39Z</time>
      </trkpt>
      <trkpt lat="49.17672" lon="1.72251">
        <ele>118</ele>
        <time>2017-01-06T10:45:44Z</time>
      </trkpt>
      <trkpt lat="49.17675" lon="1.72256">
        <ele>117</ele>
        <time>2017-01-06T10:45:47Z</time>
      </trkpt>
      <trkpt lat="49.17675" lon="1.72262">
        <ele>117</ele>
        <time>2017-01-06T10:45:50Z</time>
      </trkpt>
      <trkpt lat="49.17676" lon="1.72269">
        <ele>118</ele>
        <time>2017-01-06T10:45:54Z</time>
      </trkpt>
      <trkpt lat="49.17688" lon="1.72298">
        <ele>117</ele>
        <time>2017-01-06T10:46:11Z</time>
      </trkpt>
      <trkpt lat="49.17688" lon="1.72307">
        <ele>118</ele>
        <time>2017-01-06T10:46:16Z</time>
      </trkpt>
      <trkpt lat="49.17693" lon="1.7231">
        <ele>117</ele>
        <time>2017-01-06T10:46:24Z</time>
      </trkpt>
      <trkpt lat="49.17695" lon="1.72317">
        <ele>117</ele>
        <time>2017-01-06T10:46:27Z</time>
      </trkpt>
      <trkpt lat="49.17695" lon="1.72324">
        <ele>116</ele>
        <time>2017-01-06T10:46:30Z</time>
      </trkpt>
      <trkpt lat="49.17698" lon="1.72327">
        <ele>117</ele>
        <time>2017-01-06T10:46:32Z</time>
      </trkpt>
      <trkpt lat="49.17703" lon="1.72339">
        <ele>119</ele>
        <time>2017-01-06T10:46:38Z</time>
      </trkpt>
      <trkpt lat="49.1771" lon="1.72356">
        <ele>120</ele>
        <time>2017-01-06T10:46:47Z</time>
      </trkpt>
      <trkpt lat="49.17714" lon="1.72358">
        <ele>119</ele>
        <time>2017-01-06T10:46:50Z</time>
      </trkpt>
      <trkpt lat="49.17719" lon="1.72395">
        <ele>120</ele>
        <time>2017-01-06T10:47:10Z</time>
      </trkpt>
      <trkpt lat="49.17719" lon="1.72405">
        <ele>121</ele>
        <time>2017-01-06T10:47:14Z</time>
      </trkpt>
      <trkpt lat="49.17723" lon="1.72401">
        <ele>120</ele>
        <time>2017-01-06T10:47:15Z</time>
      </trkpt>
      <trkpt lat="49.1773" lon="1.72402">
        <ele>120</ele>
        <time>2017-01-06T10:47:19Z</time>
      </trkpt>
      <trkpt lat="49.17731" lon="1.72412">
        <ele>119</ele>
        <time>2017-01-06T10:47:26Z</time>
      </trkpt>
      <trkpt lat="49.17734" lon="1.72419">
        <ele>117</ele>
        <time>2017-01-06T10:47:30Z</time>
      </trkpt>
      <trkpt lat="49.1774" lon="1.72425">
        <ele>114</ele>
        <time>2017-01-06T10:47:34Z</time>
      </trkpt>
      <trkpt lat="49.1774" lon="1.72436">
        <ele>116</ele>
        <time>2017-01-06T10:47:39Z</time>
      </trkpt>
      <trkpt lat="49.17745" lon="1.72449">
        <ele>120</ele>
        <time>2017-01-06T10:47:48Z</time>
      </trkpt>
      <trkpt lat="49.17758" lon="1.72478">
        <ele>120</ele>
        <time>2017-01-06T10:48:07Z</time>
      </trkpt>
      <trkpt lat="49.1777" lon="1.72492">
        <ele>121</ele>
        <time>2017-01-06T10:48:25Z</time>
      </trkpt>
      <trkpt lat="49.17776" lon="1.72507">
        <ele>118</ele>
        <time>2017-01-06T10:48:33Z</time>
      </trkpt>
      <trkpt lat="49.17786" lon="1.72515">
        <ele>124</ele>
        <time>2017-01-06T10:48:44Z</time>
      </trkpt>
      <trkpt lat="49.17787" lon="1.72522">
        <ele>123</ele>
        <time>2017-01-06T10:48:47Z</time>
      </trkpt>
      <trkpt lat="49.17797" lon="1.72529">
        <ele>124</ele>
        <time>2017-01-06T10:48:56Z</time>
      </trkpt>
      <trkpt lat="49.17802" lon="1.72538">
        <ele>124</ele>
        <time>2017-01-06T10:49:03Z</time>
      </trkpt>
      <trkpt lat="49.17805" lon="1.7255">
        <ele>124</ele>
        <time>2017-01-06T10:49:09Z</time>
      </trkpt>
      <trkpt lat="49.1781" lon="1.72554">
        <ele>125</ele>
        <time>2017-01-06T10:49:13Z</time>
      </trkpt>
      <trkpt lat="49.17826" lon="1.72569">
        <ele>124</ele>
        <time>2017-01-06T10:49:24Z</time>
      </trkpt>
      <trkpt lat="49.17832" lon="1.72583">
        <ele>129</ele>
        <time>2017-01-06T10:49:43Z</time>
      </trkpt>
      <trkpt lat="49.17844" lon="1.726">
        <ele>131</ele>
        <time>2017-01-06T10:49:55Z</time>
      </trkpt>
      <trkpt lat="49.17851" lon="1.72602">
        <ele>130</ele>
        <time>2017-01-06T10:50:00Z</time>
      </trkpt>
      <trkpt lat="49.17854" lon="1.72609">
        <ele>130</ele>
        <time>2017-01-06T10:50:03Z</time>
      </trkpt>
      <trkpt lat="49.17857" lon="1.72617">
        <ele>127</ele>
        <time>2017-01-06T10:50:07Z</time>
      </trkpt>
      <trkpt lat="49.17858" lon="1.72628">
        <ele>126</ele>
        <time>2017-01-06T10:50:16Z</time>
      </trkpt>
      <trkpt lat="49.17865" lon="1.72631">
        <ele>127</ele>
        <time>2017-01-06T10:50:20Z</time>
      </trkpt>
      <trkpt lat="49.17861" lon="1.7264">
        <ele>129</ele>
        <time>2017-01-06T10:50:24Z</time>
      </trkpt>
      <trkpt lat="49.17872" lon="1.72651">
        <ele>142</ele>
        <time>2017-01-06T10:50:38Z</time>
      </trkpt>
      <trkpt lat="49.17876" lon="1.72655">
        <ele>141</ele>
        <time>2017-01-06T10:50:42Z</time>
      </trkpt>
      <trkpt lat="49.17879" lon="1.72664">
        <ele>138</ele>
        <time>2017-01-06T10:50:47Z</time>
      </trkpt>
      <trkpt lat="49.17882" lon="1.72671">
        <ele>139</ele>
        <time>2017-01-06T10:50:52Z</time>
      </trkpt>
      <trkpt lat="49.17881" lon="1.72677">
        <ele>140</ele>
        <time>2017-01-06T10:50:56Z</time>
      </trkpt>
      <trkpt lat="49.17878" lon="1.72682">
        <ele>142</ele>
        <time>2017-01-06T10:50:59Z</time>
      </trkpt>
      <trkpt lat="49.17882" lon="1.72685">
        <ele>143</ele>
        <time>2017-01-06T10:51:00Z</time>
      </trkpt>
      <trkpt lat="49.17895" lon="1.72705">
        <ele>145</ele>
        <time>2017-01-06T10:51:14Z</time>
      </trkpt>
      <trkpt lat="49.17897" lon="1.72714">
        <ele>146</ele>
        <time>2017-01-06T10:51:20Z</time>
      </trkpt>
      <trkpt lat="49.17901" lon="1.7272">
        <ele>146</ele>
        <time>2017-01-06T10:51:24Z</time>
      </trkpt>
      <trkpt lat="49.17905" lon="1.72729">
        <ele>143</ele>
        <time>2017-01-06T10:51:29Z</time>
      </trkpt>
      <trkpt lat="49.17905" lon="1.72748">
        <ele>140</ele>
        <time>2017-01-06T10:51:42Z</time>
      </trkpt>
      <trkpt lat="49.17904" lon="1.72754">
        <ele>142</ele>
        <time>2017-01-06T10:51:46Z</time>
      </trkpt>
      <trkpt lat="49.17911" lon="1.72761">
        <ele>144</ele>
        <time>2017-01-06T10:51:51Z</time>
      </trkpt>
      <trkpt lat="49.17918" lon="1.72773">
        <ele>143</ele>
        <time>2017-01-06T10:51:59Z</time>
      </trkpt>
      <trkpt lat="49.17919" lon="1.7278">
        <ele>145</ele>
        <time>2017-01-06T10:52:04Z</time>
      </trkpt>
      <trkpt lat="49.17924" lon="1.72784">
        <ele>145</ele>
        <time>2017-01-06T10:52:07Z</time>
      </trkpt>
      <trkpt lat="49.17926" lon="1.72795">
        <ele>143</ele>
        <time>2017-01-06T10:52:15Z</time>
      </trkpt>
      <trkpt lat="49.17932" lon="1.728">
        <ele>143</ele>
        <time>2017-01-06T10:52:19Z</time>
      </trkpt>
      <trkpt lat="49.17939" lon="1.72829">
        <ele>144</ele>
        <time>2017-01-06T10:52:38Z</time>
      </trkpt>
      <trkpt lat="49.17938" lon="1.72835">
        <ele>145</ele>
        <time>2017-01-06T10:52:42Z</time>
      </trkpt>
      <trkpt lat="49.17943" lon="1.72845">
        <ele>146</ele>
        <time>2017-01-06T10:52:48Z</time>
      </trkpt>
      <trkpt lat="49.17947" lon="1.72846">
        <ele>147</ele>
        <time>2017-01-06T10:52:49Z</time>
      </trkpt>
      <trkpt lat="49.17948" lon="1.72854">
        <ele>147</ele>
        <time>2017-01-06T10:52:52Z</time>
      </trkpt>
      <trkpt lat="49.17952" lon="1.72857">
        <ele>149</ele>
        <time>2017-01-06T10:52:58Z</time>
      </trkpt>
      <trkpt lat="49.17958" lon="1.7287">
        <ele>149</ele>
        <time>2017-01-06T10:53:07Z</time>
      </trkpt>
      <trkpt lat="49.17961" lon="1.7288">
        <ele>149</ele>
        <time>2017-01-06T10:53:12Z</time>
      </trkpt>
      <trkpt lat="49.17967" lon="1.72885">
        <ele>149</ele>
        <time>2017-01-06T10:53:18Z</time>
      </trkpt>
      <trkpt lat="49.17969" lon="1.72889">
        <ele>149</ele>
        <time>2017-01-06T10:53:20Z</time>
      </trkpt>
      <trkpt lat="49.17974" lon="1.72895">
        <ele>149</ele>
        <time>2017-01-06T10:53:27Z</time>
      </trkpt>
      <trkpt lat="49.17976" lon="1.72899">
        <ele>149</ele>
        <time>2017-01-06T10:53:29Z</time>
      </trkpt>
      <trkpt lat="49.18006" lon="1.72939">
        <ele>144</ele>
        <time>2017-01-06T10:54:01Z</time>
      </trkpt>
      <trkpt lat="49.18008" lon="1.72945">
        <ele>144</ele>
        <time>2017-01-06T10:54:03Z</time>
      </trkpt>
      <trkpt lat="49.18009" lon="1.72949">
        <ele>148</ele>
        <time>2017-01-06T10:54:06Z</time>
      </trkpt>
      <trkpt lat="49.18012" lon="1.72951">
        <ele>148</ele>
        <time>2017-01-06T10:54:08Z</time>
      </trkpt>
      <trkpt lat="49.1802" lon="1.72962">
        <ele>151</ele>
        <time>2017-01-06T10:54:21Z</time>
      </trkpt>
      <trkpt lat="49.18027" lon="1.72964">
        <ele>149</ele>
        <time>2017-01-06T10:54:24Z</time>
      </trkpt>
      <trkpt lat="49.18037" lon="1.72979">
        <ele>147</ele>
        <time>2017-01-06T10:54:34Z</time>
      </trkpt>
      <trkpt lat="49.18044" lon="1.72994">
        <ele>146</ele>
        <time>2017-01-06T10:54:43Z</time>
      </trkpt>
      <trkpt lat="49.18057" lon="1.73009">
        <ele>147</ele>
        <time>2017-01-06T10:54:59Z</time>
      </trkpt>
      <trkpt lat="49.18084" lon="1.73037">
        <ele>146</ele>
        <time>2017-01-06T10:55:26Z</time>
      </trkpt>
      <trkpt lat="49.18085" lon="1.73041">
        <ele>147</ele>
        <time>2017-01-06T10:55:28Z</time>
      </trkpt>
      <trkpt lat="49.18092" lon="1.73043">
        <ele>148</ele>
        <time>2017-01-06T10:55:33Z</time>
      </trkpt>
      <trkpt lat="49.18094" lon="1.73047">
        <ele>148</ele>
        <time>2017-01-06T10:55:35Z</time>
      </trkpt>
      <trkpt lat="49.18117" lon="1.73067">
        <ele>146</ele>
        <time>2017-01-06T10:55:55Z</time>
      </trkpt>
      <trkpt lat="49.18137" lon="1.73084">
        <ele>149</ele>
        <time>2017-01-06T10:56:15Z</time>
      </trkpt>
      <trkpt lat="49.1815" lon="1.73097">
        <ele>147</ele>
        <time>2017-01-06T10:56:29Z</time>
      </trkpt>
      <trkpt lat="49.18169" lon="1.73105">
        <ele>146</ele>
        <time>2017-01-06T10:56:40Z</time>
      </trkpt>
      <trkpt lat="49.1817" lon="1.7311">
        <ele>146</ele>
        <time>2017-01-06T10:56:42Z</time>
      </trkpt>
      <trkpt lat="49.18178" lon="1.73114">
        <ele>144</ele>
        <time>2017-01-06T10:56:49Z</time>
      </trkpt>
      <trkpt lat="49.18184" lon="1.73122">
        <ele>142</ele>
        <time>2017-01-06T10:56:55Z</time>
      </trkpt>
      <trkpt lat="49.18189" lon="1.73122">
        <ele>141</ele>
        <time>2017-01-06T10:56:58Z</time>
      </trkpt>
      <trkpt lat="49.18193" lon="1.73126">
        <ele>141</ele>
        <time>2017-01-06T10:57:03Z</time>
      </trkpt>
      <trkpt lat="49.18207" lon="1.73139">
        <ele>144</ele>
        <time>2017-01-06T10:57:20Z</time>
      </trkpt>
      <trkpt lat="49.18212" lon="1.73139">
        <ele>144</ele>
        <time>2017-01-06T10:57:23Z</time>
      </trkpt>
      <trkpt lat="49.18231" lon="1.73149">
        <ele>141</ele>
        <time>2017-01-06T10:57:39Z</time>
      </trkpt>
      <trkpt lat="49.18235" lon="1.73146">
        <ele>139</ele>
        <time>2017-01-06T10:57:42Z</time>
      </trkpt>
      <trkpt lat="49.1824" lon="1.73152">
        <ele>140</ele>
        <time>2017-01-06T10:57:48Z</time>
      </trkpt>
      <trkpt lat="49.18244" lon="1.73148">
        <ele>138</ele>
        <time>2017-01-06T10:57:51Z</time>
      </trkpt>
      <trkpt lat="49.18244" lon="1.73159">
        <ele>139</ele>
        <time>2017-01-06T10:57:53Z</time>
      </trkpt>
      <trkpt lat="49.18248" lon="1.73161">
        <ele>141</ele>
        <time>2017-01-06T10:57:56Z</time>
      </trkpt>
      <trkpt lat="49.18261" lon="1.73168">
        <ele>144</ele>
        <time>2017-01-06T10:58:06Z</time>
      </trkpt>
      <trkpt lat="49.18295" lon="1.73178">
        <ele>143</ele>
        <time>2017-01-06T10:58:31Z</time>
      </trkpt>
      <trkpt lat="49.18327" lon="1.73163">
        <ele>138</ele>
        <time>2017-01-06T10:58:52Z</time>
      </trkpt>
      <trkpt lat="49.18333" lon="1.73159">
        <ele>140</ele>
        <time>2017-01-06T10:58:55Z</time>
      </trkpt>
      <trkpt lat="49.18327" lon="1.73151">
        <ele>141</ele>
        <time>2017-01-06T10:58:58Z</time>
      </trkpt>
      <trkpt lat="49.18329" lon="1.73141">
        <ele>141</ele>
        <time>2017-01-06T10:59:04Z</time>
      </trkpt>
      <trkpt lat="49.18328" lon="1.73137">
        <ele>141</ele>
        <time>2017-01-06T10:59:07Z</time>
      </trkpt>
      <trkpt lat="49.18331" lon="1.73132">
        <ele>138</ele>
        <time>2017-01-06T10:59:09Z</time>
      </trkpt>
      <trkpt lat="49.18332" lon="1.73113">
        <ele>136</ele>
        <time>2017-01-06T10:59:19Z</time>
      </trkpt>
      <trkpt lat="49.18331" lon="1.73106">
        <ele>137</ele>
        <time>2017-01-06T10:59:22Z</time>
      </trkpt>
      <trkpt lat="49.18337" lon="1.73093">
        <ele>137</ele>
        <time>2017-01-06T10:59:33Z</time>
      </trkpt>
      <trkpt lat="49.18341" lon="1.73085">
        <ele>138</ele>
        <time>2017-01-06T10:59:37Z</time>
      </trkpt>
      <trkpt lat="49.1834" lon="1.73074">
        <ele>138</ele>
        <time>2017-01-06T10:59:42Z</time>
      </trkpt>
      <trkpt lat="49.1835" lon="1.73054">
        <ele>139</ele>
        <time>2017-01-06T11:00:00Z</time>
      </trkpt>
      <trkpt lat="49.1835" lon="1.7304">
        <ele>136</ele>
        <time>2017-01-06T11:00:06Z</time>
      </trkpt>
      <trkpt lat="49.18349" lon="1.73035">
        <ele>136</ele>
        <time>2017-01-06T11:00:12Z</time>
      </trkpt>
      <trkpt lat="49.18352" lon="1.73034">
        <ele>136</ele>
        <time>2017-01-06T11:00:14Z</time>
      </trkpt>
      <trkpt lat="49.18359" lon="1.73018">
        <ele>139</ele>
        <time>2017-01-06T11:00:27Z</time>
      </trkpt>
      <trkpt lat="49.18357" lon="1.73009">
        <ele>139</ele>
        <time>2017-01-06T11:00:33Z</time>
      </trkpt>
      <trkpt lat="49.18358" lon="1.73003">
        <ele>139</ele>
        <time>2017-01-06T11:00:38Z</time>
      </trkpt>
      <trkpt lat="49.1836" lon="1.72996">
        <ele>139</ele>
        <time>2017-01-06T11:00:40Z</time>
      </trkpt>
      <trkpt lat="49.18358" lon="1.7299">
        <ele>140</ele>
        <time>2017-01-06T11:00:43Z</time>
      </trkpt>
      <trkpt lat="49.18359" lon="1.7298">
        <ele>141</ele>
        <time>2017-01-06T11:00:47Z</time>
      </trkpt>
      <trkpt lat="49.18361" lon="1.72975">
        <ele>141</ele>
        <time>2017-01-06T11:00:51Z</time>
      </trkpt>
      <trkpt lat="49.18364" lon="1.72969">
        <ele>138</ele>
        <time>2017-01-06T11:00:55Z</time>
      </trkpt>
      <trkpt lat="49.18369" lon="1.72969">
        <ele>136</ele>
        <time>2017-01-06T11:00:56Z</time>
      </trkpt>
      <trkpt lat="49.18397" lon="1.7297">
        <ele>135</ele>
        <time>2017-01-06T11:01:15Z</time>
      </trkpt>
      <trkpt lat="49.18399" lon="1.72974">
        <ele>135</ele>
        <time>2017-01-06T11:01:19Z</time>
      </trkpt>
      <trkpt lat="49.18403" lon="1.72976">
        <ele>133</ele>
        <time>2017-01-06T11:01:24Z</time>
      </trkpt>
      <trkpt lat="49.18403" lon="1.72981">
        <ele>132</ele>
        <time>2017-01-06T11:01:26Z</time>
      </trkpt>
      <trkpt lat="49.18405" lon="1.72986">
        <ele>132</ele>
        <time>2017-01-06T11:01:30Z</time>
      </trkpt>
      <trkpt lat="49.18422" lon="1.72997">
        <ele>134</ele>
        <time>2017-01-06T11:01:39Z</time>
      </trkpt>
      <trkpt lat="49.18423" lon="1.73004">
        <ele>135</ele>
        <time>2017-01-06T11:01:42Z</time>
      </trkpt>
      <trkpt lat="49.18431" lon="1.73011">
        <ele>135</ele>
        <time>2017-01-06T11:01:50Z</time>
      </trkpt>
      <trkpt lat="49.18443" lon="1.73019">
        <ele>134</ele>
        <time>2017-01-06T11:02:01Z</time>
      </trkpt>
      <trkpt lat="49.1845" lon="1.73022">
        <ele>134</ele>
        <time>2017-01-06T11:02:06Z</time>
      </trkpt>
      <trkpt lat="49.18453" lon="1.73018">
        <ele>134</ele>
        <time>2017-01-06T11:02:09Z</time>
      </trkpt>
      <trkpt lat="49.18453" lon="1.73013">
        <ele>132</ele>
        <time>2017-01-06T11:02:11Z</time>
      </trkpt>
      <trkpt lat="49.18451" lon="1.73005">
        <ele>132</ele>
        <time>2017-01-06T11:02:15Z</time>
      </trkpt>
      <trkpt lat="49.18454" lon="1.73002">
        <ele>132</ele>
        <time>2017-01-06T11:02:17Z</time>
      </trkpt>
      <trkpt lat="49.18457" lon="1.72997">
        <ele>133</ele>
        <time>2017-01-06T11:02:27Z</time>
      </trkpt>
      <trkpt lat="49.18473" lon="1.72993">
        <ele>134</ele>
        <time>2017-01-06T11:02:36Z</time>
      </trkpt>
      <trkpt lat="49.1848" lon="1.72996">
        <ele>133</ele>
        <time>2017-01-06T11:02:42Z</time>
      </trkpt>
      <trkpt lat="49.18481" lon="1.73003">
        <ele>133</ele>
        <time>2017-01-06T11:02:45Z</time>
      </trkpt>
      <trkpt lat="49.18486" lon="1.73006">
        <ele>132</ele>
        <time>2017-01-06T11:02:48Z</time>
      </trkpt>
      <trkpt lat="49.18497" lon="1.7301">
        <ele>129</ele>
        <time>2017-01-06T11:02:52Z</time>
      </trkpt>
      <trkpt lat="49.18499" lon="1.73004">
        <ele>129</ele>
        <time>2017-01-06T11:02:54Z</time>
      </trkpt>
      <trkpt lat="49.18499" lon="1.72996">
        <ele>128</ele>
        <time>2017-01-06T11:02:56Z</time>
      </trkpt>
      <trkpt lat="49.18496" lon="1.7299">
        <ele>127</ele>
        <time>2017-01-06T11:03:00Z</time>
      </trkpt>
      <trkpt lat="49.18496" lon="1.7299">
        <ele>126</ele>
        <time>2017-01-06T11:03:24Z</time>
      </trkpt>
      <trkpt lat="49.18494" lon="1.72987">
        <ele>126</ele>
        <time>2017-01-06T11:03:26Z</time>
      </trkpt>
    </trkseg>
  </trk>
</gpx>